<?xml version="1.0" encoding="UTF-8" standalone="no" ?>
<gpx xmlns="http://www.topografix.com/GPX/1/1" xmlns:xsi="http://www.w3.org/2001/XMLSchema-instance" xsi:schemaLocation="http://www.topografix.com/GPX/1/1 http://www.topografix.com/GPX/1/1/gpx.xsd" version="1.1" creator="VisuGPX - https://www.visugpx.com">
  <metadata>
    <name>Pic SAILLANT Pic du GAR</name>
    <desc><![CDATA[Un grand classique avec des points de vues superbes sans difficulté technique.]]></desc>
  </metadata>
  <trk>
    <name><![CDATA[Pic SAILLANT Pic du GAR]]></name>
    <trkseg>
      <trkpt lat="42.93246" lon="0.69481">
        <ele>712.95</ele>
        <time>2020-05-20T07:41:13Z</time>
      </trkpt>
      <trkpt lat="42.93247" lon="0.6948">
        <ele>713.44</ele>
        <time>2020-05-20T07:45:32Z</time>
      </trkpt>
      <trkpt lat="42.9325" lon="0.69487">
        <ele>714.4</ele>
        <time>2020-05-20T07:45:48Z</time>
      </trkpt>
      <trkpt lat="42.93258" lon="0.6949">
        <ele>715.84</ele>
        <time>2020-05-20T07:46:21Z</time>
      </trkpt>
      <trkpt lat="42.93266" lon="0.69497">
        <ele>716.32</ele>
        <time>2020-05-20T07:46:33Z</time>
      </trkpt>
      <trkpt lat="42.93271" lon="0.69508">
        <ele>717.28</ele>
        <time>2020-05-20T07:46:45Z</time>
      </trkpt>
      <trkpt lat="42.93274" lon="0.69519">
        <ele>718.72</ele>
        <time>2020-05-20T07:46:56Z</time>
      </trkpt>
      <trkpt lat="42.93277" lon="0.69533">
        <ele>720.65</ele>
        <time>2020-05-20T07:47:08Z</time>
      </trkpt>
      <trkpt lat="42.93278" lon="0.69548">
        <ele>721.13</ele>
        <time>2020-05-20T07:47:19Z</time>
      </trkpt>
      <trkpt lat="42.93279" lon="0.69561">
        <ele>722.09</ele>
        <time>2020-05-20T07:47:29Z</time>
      </trkpt>
      <trkpt lat="42.93279" lon="0.69574">
        <ele>723.53</ele>
        <time>2020-05-20T07:47:40Z</time>
      </trkpt>
      <trkpt lat="42.9328" lon="0.69589">
        <ele>724.01</ele>
        <time>2020-05-20T07:47:51Z</time>
      </trkpt>
      <trkpt lat="42.93279" lon="0.69601">
        <ele>724.97</ele>
        <time>2020-05-20T07:48:01Z</time>
      </trkpt>
      <trkpt lat="42.93278" lon="0.69614">
        <ele>725.93</ele>
        <time>2020-05-20T07:48:12Z</time>
      </trkpt>
      <trkpt lat="42.9328" lon="0.69625">
        <ele>727.37</ele>
        <time>2020-05-20T07:48:22Z</time>
      </trkpt>
      <trkpt lat="42.93282" lon="0.69636">
        <ele>729.3</ele>
        <time>2020-05-20T07:48:32Z</time>
      </trkpt>
      <trkpt lat="42.93289" lon="0.69644">
        <ele>730.74</ele>
        <time>2020-05-20T07:48:44Z</time>
      </trkpt>
      <trkpt lat="42.93296" lon="0.69656">
        <ele>732.66</ele>
        <time>2020-05-20T07:48:56Z</time>
      </trkpt>
      <trkpt lat="42.93295" lon="0.69669">
        <ele>733.62</ele>
        <time>2020-05-20T07:49:06Z</time>
      </trkpt>
      <trkpt lat="42.93296" lon="0.69682">
        <ele>734.1</ele>
        <time>2020-05-20T07:49:16Z</time>
      </trkpt>
      <trkpt lat="42.93301" lon="0.69694">
        <ele>735.07</ele>
        <time>2020-05-20T07:49:26Z</time>
      </trkpt>
      <trkpt lat="42.9331" lon="0.69701">
        <ele>735.07</ele>
        <time>2020-05-20T07:49:36Z</time>
      </trkpt>
      <trkpt lat="42.93319" lon="0.69709">
        <ele>736.03</ele>
        <time>2020-05-20T07:49:45Z</time>
      </trkpt>
      <trkpt lat="42.93325" lon="0.69721">
        <ele>736.03</ele>
        <time>2020-05-20T07:49:54Z</time>
      </trkpt>
      <trkpt lat="42.93334" lon="0.69728">
        <ele>735.55</ele>
        <time>2020-05-20T07:50:03Z</time>
      </trkpt>
      <trkpt lat="42.93345" lon="0.69733">
        <ele>736.51</ele>
        <time>2020-05-20T07:50:13Z</time>
      </trkpt>
      <trkpt lat="42.93353" lon="0.6974">
        <ele>736.99</ele>
        <time>2020-05-20T07:50:22Z</time>
      </trkpt>
      <trkpt lat="42.9336" lon="0.69749">
        <ele>736.99</ele>
        <time>2020-05-20T07:50:31Z</time>
      </trkpt>
      <trkpt lat="42.93366" lon="0.69759">
        <ele>738.43</ele>
        <time>2020-05-20T07:50:40Z</time>
      </trkpt>
      <trkpt lat="42.93372" lon="0.69771">
        <ele>738.91</ele>
        <time>2020-05-20T07:50:50Z</time>
      </trkpt>
      <trkpt lat="42.93378" lon="0.69782">
        <ele>740.35</ele>
        <time>2020-05-20T07:51:00Z</time>
      </trkpt>
      <trkpt lat="42.93383" lon="0.69792">
        <ele>740.83</ele>
        <time>2020-05-20T07:51:09Z</time>
      </trkpt>
      <trkpt lat="42.9339" lon="0.698">
        <ele>741.79</ele>
        <time>2020-05-20T07:51:19Z</time>
      </trkpt>
      <trkpt lat="42.93397" lon="0.69807">
        <ele>742.76</ele>
        <time>2020-05-20T07:51:30Z</time>
      </trkpt>
      <trkpt lat="42.93403" lon="0.69817">
        <ele>744.68</ele>
        <time>2020-05-20T07:51:43Z</time>
      </trkpt>
      <trkpt lat="42.93411" lon="0.69826">
        <ele>746.12</ele>
        <time>2020-05-20T07:51:56Z</time>
      </trkpt>
      <trkpt lat="42.93417" lon="0.69837">
        <ele>747.56</ele>
        <time>2020-05-20T07:52:10Z</time>
      </trkpt>
      <trkpt lat="42.93425" lon="0.69847">
        <ele>750.45</ele>
        <time>2020-05-20T07:52:24Z</time>
      </trkpt>
      <trkpt lat="42.93431" lon="0.69844">
        <ele>752.37</ele>
        <time>2020-05-20T07:52:37Z</time>
      </trkpt>
      <trkpt lat="42.93429" lon="0.69834">
        <ele>754.29</ele>
        <time>2020-05-20T07:52:52Z</time>
      </trkpt>
      <trkpt lat="42.93426" lon="0.69821">
        <ele>756.21</ele>
        <time>2020-05-20T07:53:06Z</time>
      </trkpt>
      <trkpt lat="42.93421" lon="0.69809">
        <ele>759.1</ele>
        <time>2020-05-20T07:53:24Z</time>
      </trkpt>
      <trkpt lat="42.93416" lon="0.69793">
        <ele>761.02</ele>
        <time>2020-05-20T07:53:39Z</time>
      </trkpt>
      <trkpt lat="42.93409" lon="0.69777">
        <ele>762.46</ele>
        <time>2020-05-20T07:53:52Z</time>
      </trkpt>
      <trkpt lat="42.93407" lon="0.6976">
        <ele>764.39</ele>
        <time>2020-05-20T07:54:04Z</time>
      </trkpt>
      <trkpt lat="42.93402" lon="0.69746">
        <ele>764.87</ele>
        <time>2020-05-20T07:54:16Z</time>
      </trkpt>
      <trkpt lat="42.934" lon="0.69731">
        <ele>765.83</ele>
        <time>2020-05-20T07:54:26Z</time>
      </trkpt>
      <trkpt lat="42.93402" lon="0.69718">
        <ele>767.27</ele>
        <time>2020-05-20T07:54:36Z</time>
      </trkpt>
      <trkpt lat="42.93399" lon="0.69706">
        <ele>768.23</ele>
        <time>2020-05-20T07:54:46Z</time>
      </trkpt>
      <trkpt lat="42.93394" lon="0.69694">
        <ele>769.19</ele>
        <time>2020-05-20T07:54:55Z</time>
      </trkpt>
      <trkpt lat="42.93389" lon="0.69683">
        <ele>769.67</ele>
        <time>2020-05-20T07:55:04Z</time>
      </trkpt>
      <trkpt lat="42.93383" lon="0.69671">
        <ele>771.11</ele>
        <time>2020-05-20T07:55:13Z</time>
      </trkpt>
      <trkpt lat="42.93377" lon="0.6966">
        <ele>772.08</ele>
        <time>2020-05-20T07:55:22Z</time>
      </trkpt>
      <trkpt lat="42.93378" lon="0.6965">
        <ele>774.48</ele>
        <time>2020-05-20T07:55:34Z</time>
      </trkpt>
      <trkpt lat="42.93395" lon="0.69645">
        <ele>776.88</ele>
        <time>2020-05-20T07:55:48Z</time>
      </trkpt>
      <trkpt lat="42.934" lon="0.69632">
        <ele>778.32</ele>
        <time>2020-05-20T07:56:01Z</time>
      </trkpt>
      <trkpt lat="42.93409" lon="0.69635">
        <ele>779.77</ele>
        <time>2020-05-20T07:56:13Z</time>
      </trkpt>
      <trkpt lat="42.93412" lon="0.6965">
        <ele>780.73</ele>
        <time>2020-05-20T07:56:26Z</time>
      </trkpt>
      <trkpt lat="42.93413" lon="0.69663">
        <ele>780.73</ele>
        <time>2020-05-20T07:56:37Z</time>
      </trkpt>
      <trkpt lat="42.93415" lon="0.69676">
        <ele>782.17</ele>
        <time>2020-05-20T07:56:48Z</time>
      </trkpt>
      <trkpt lat="42.93418" lon="0.69691">
        <ele>783.13</ele>
        <time>2020-05-20T07:56:59Z</time>
      </trkpt>
      <trkpt lat="42.93421" lon="0.69705">
        <ele>784.57</ele>
        <time>2020-05-20T07:57:11Z</time>
      </trkpt>
      <trkpt lat="42.93424" lon="0.6972">
        <ele>785.53</ele>
        <time>2020-05-20T07:57:22Z</time>
      </trkpt>
      <trkpt lat="42.93428" lon="0.69733">
        <ele>786.02</ele>
        <time>2020-05-20T07:57:34Z</time>
      </trkpt>
      <trkpt lat="42.93431" lon="0.69732">
        <ele>788.9</ele>
        <time>2020-05-20T07:57:49Z</time>
      </trkpt>
      <trkpt lat="42.93433" lon="0.69724">
        <ele>790.34</ele>
        <time>2020-05-20T07:58:02Z</time>
      </trkpt>
      <trkpt lat="42.93433" lon="0.69711">
        <ele>792.74</ele>
        <time>2020-05-20T07:58:17Z</time>
      </trkpt>
      <trkpt lat="42.93435" lon="0.69695">
        <ele>794.19</ele>
        <time>2020-05-20T07:58:31Z</time>
      </trkpt>
      <trkpt lat="42.93436" lon="0.6968">
        <ele>796.11</ele>
        <time>2020-05-20T07:58:44Z</time>
      </trkpt>
      <trkpt lat="42.93438" lon="0.69668">
        <ele>798.03</ele>
        <time>2020-05-20T07:58:58Z</time>
      </trkpt>
      <trkpt lat="42.9344" lon="0.69654">
        <ele>800.44</ele>
        <time>2020-05-20T07:59:15Z</time>
      </trkpt>
      <trkpt lat="42.93443" lon="0.69637">
        <ele>803.8</ele>
        <time>2020-05-20T07:59:33Z</time>
      </trkpt>
      <trkpt lat="42.93446" lon="0.69623">
        <ele>806.68</ele>
        <time>2020-05-20T07:59:50Z</time>
      </trkpt>
      <trkpt lat="42.93447" lon="0.6961">
        <ele>808.61</ele>
        <time>2020-05-20T08:00:06Z</time>
      </trkpt>
      <trkpt lat="42.93449" lon="0.69597">
        <ele>811.01</ele>
        <time>2020-05-20T08:00:22Z</time>
      </trkpt>
      <trkpt lat="42.93451" lon="0.6958">
        <ele>813.89</ele>
        <time>2020-05-20T08:00:38Z</time>
      </trkpt>
      <trkpt lat="42.93453" lon="0.69567">
        <ele>814.85</ele>
        <time>2020-05-20T08:00:56Z</time>
      </trkpt>
      <trkpt lat="42.93456" lon="0.69551">
        <ele>817.26</ele>
        <time>2020-05-20T08:01:13Z</time>
      </trkpt>
      <trkpt lat="42.93462" lon="0.69532">
        <ele>819.66</ele>
        <time>2020-05-20T08:01:32Z</time>
      </trkpt>
      <trkpt lat="42.93471" lon="0.69512">
        <ele>822.06</ele>
        <time>2020-05-20T08:01:50Z</time>
      </trkpt>
      <trkpt lat="42.93477" lon="0.69493">
        <ele>824.47</ele>
        <time>2020-05-20T08:02:09Z</time>
      </trkpt>
      <trkpt lat="42.93486" lon="0.69478">
        <ele>826.39</ele>
        <time>2020-05-20T08:02:26Z</time>
      </trkpt>
      <trkpt lat="42.93493" lon="0.69462">
        <ele>828.79</ele>
        <time>2020-05-20T08:02:43Z</time>
      </trkpt>
      <trkpt lat="42.93499" lon="0.69446">
        <ele>830.72</ele>
        <time>2020-05-20T08:03:00Z</time>
      </trkpt>
      <trkpt lat="42.93507" lon="0.69433">
        <ele>833.6</ele>
        <time>2020-05-20T08:03:17Z</time>
      </trkpt>
      <trkpt lat="42.93519" lon="0.69418">
        <ele>836</ele>
        <time>2020-05-20T08:03:36Z</time>
      </trkpt>
      <trkpt lat="42.93541" lon="0.69406">
        <ele>838.41</ele>
        <time>2020-05-20T08:03:56Z</time>
      </trkpt>
      <trkpt lat="42.93554" lon="0.69401">
        <ele>840.33</ele>
        <time>2020-05-20T08:04:12Z</time>
      </trkpt>
      <trkpt lat="42.9357" lon="0.69398">
        <ele>843.21</ele>
        <time>2020-05-20T08:04:30Z</time>
      </trkpt>
      <trkpt lat="42.93583" lon="0.69387">
        <ele>845.14</ele>
        <time>2020-05-20T08:04:48Z</time>
      </trkpt>
      <trkpt lat="42.93595" lon="0.69381">
        <ele>847.54</ele>
        <time>2020-05-20T08:05:03Z</time>
      </trkpt>
      <trkpt lat="42.93606" lon="0.69381">
        <ele>848.98</ele>
        <time>2020-05-20T08:05:16Z</time>
      </trkpt>
      <trkpt lat="42.93617" lon="0.69379">
        <ele>849.94</ele>
        <time>2020-05-20T08:05:30Z</time>
      </trkpt>
      <trkpt lat="42.93629" lon="0.6937">
        <ele>852.83</ele>
        <time>2020-05-20T08:05:45Z</time>
      </trkpt>
      <trkpt lat="42.93638" lon="0.69363">
        <ele>853.79</ele>
        <time>2020-05-20T08:06:01Z</time>
      </trkpt>
      <trkpt lat="42.93651" lon="0.69362">
        <ele>856.19</ele>
        <time>2020-05-20T08:06:19Z</time>
      </trkpt>
      <trkpt lat="42.93662" lon="0.69354">
        <ele>858.59</ele>
        <time>2020-05-20T08:06:37Z</time>
      </trkpt>
      <trkpt lat="42.93676" lon="0.6935">
        <ele>861.48</ele>
        <time>2020-05-20T08:06:58Z</time>
      </trkpt>
      <trkpt lat="42.93694" lon="0.69346">
        <ele>864.84</ele>
        <time>2020-05-20T08:07:18Z</time>
      </trkpt>
      <trkpt lat="42.93712" lon="0.69345">
        <ele>865.8</ele>
        <time>2020-05-20T08:07:33Z</time>
      </trkpt>
      <trkpt lat="42.93723" lon="0.69345">
        <ele>867.73</ele>
        <time>2020-05-20T08:07:45Z</time>
      </trkpt>
      <trkpt lat="42.93734" lon="0.69344">
        <ele>869.17</ele>
        <time>2020-05-20T08:07:59Z</time>
      </trkpt>
      <trkpt lat="42.93746" lon="0.6934">
        <ele>871.09</ele>
        <time>2020-05-20T08:08:15Z</time>
      </trkpt>
      <trkpt lat="42.93756" lon="0.69334">
        <ele>872.53</ele>
        <time>2020-05-20T08:08:27Z</time>
      </trkpt>
      <trkpt lat="42.93767" lon="0.69334">
        <ele>873.5</ele>
        <time>2020-05-20T08:08:39Z</time>
      </trkpt>
      <trkpt lat="42.93776" lon="0.69337">
        <ele>875.42</ele>
        <time>2020-05-20T08:08:51Z</time>
      </trkpt>
      <trkpt lat="42.93784" lon="0.69336">
        <ele>877.34</ele>
        <time>2020-05-20T08:09:06Z</time>
      </trkpt>
      <trkpt lat="42.93793" lon="0.69343">
        <ele>879.26</ele>
        <time>2020-05-20T08:09:22Z</time>
      </trkpt>
      <trkpt lat="42.93804" lon="0.69353">
        <ele>881.19</ele>
        <time>2020-05-20T08:09:38Z</time>
      </trkpt>
      <trkpt lat="42.93818" lon="0.69363">
        <ele>883.59</ele>
        <time>2020-05-20T08:09:57Z</time>
      </trkpt>
      <trkpt lat="42.93831" lon="0.69362">
        <ele>885.51</ele>
        <time>2020-05-20T08:10:10Z</time>
      </trkpt>
      <trkpt lat="42.93841" lon="0.69361">
        <ele>887.43</ele>
        <time>2020-05-20T08:10:22Z</time>
      </trkpt>
      <trkpt lat="42.93852" lon="0.69363">
        <ele>887.91</ele>
        <time>2020-05-20T08:10:32Z</time>
      </trkpt>
      <trkpt lat="42.93864" lon="0.6936">
        <ele>888.88</ele>
        <time>2020-05-20T08:10:42Z</time>
      </trkpt>
      <trkpt lat="42.93872" lon="0.69358">
        <ele>890.32</ele>
        <time>2020-05-20T08:10:53Z</time>
      </trkpt>
      <trkpt lat="42.93881" lon="0.69358">
        <ele>891.28</ele>
        <time>2020-05-20T08:11:06Z</time>
      </trkpt>
      <trkpt lat="42.93892" lon="0.69357">
        <ele>893.2</ele>
        <time>2020-05-20T08:11:20Z</time>
      </trkpt>
      <trkpt lat="42.93902" lon="0.69359">
        <ele>894.64</ele>
        <time>2020-05-20T08:11:34Z</time>
      </trkpt>
      <trkpt lat="42.93913" lon="0.6936">
        <ele>897.05</ele>
        <time>2020-05-20T08:11:49Z</time>
      </trkpt>
      <trkpt lat="42.93924" lon="0.69365">
        <ele>897.05</ele>
        <time>2020-05-20T08:12:02Z</time>
      </trkpt>
      <trkpt lat="42.93935" lon="0.69361">
        <ele>898.01</ele>
        <time>2020-05-20T08:12:21Z</time>
      </trkpt>
      <trkpt lat="42.93946" lon="0.69358">
        <ele>899.93</ele>
        <time>2020-05-20T08:12:36Z</time>
      </trkpt>
      <trkpt lat="42.93956" lon="0.69359">
        <ele>902.33</ele>
        <time>2020-05-20T08:12:53Z</time>
      </trkpt>
      <trkpt lat="42.93967" lon="0.69358">
        <ele>903.78</ele>
        <time>2020-05-20T08:13:07Z</time>
      </trkpt>
      <trkpt lat="42.93976" lon="0.69353">
        <ele>905.7</ele>
        <time>2020-05-20T08:13:22Z</time>
      </trkpt>
      <trkpt lat="42.9398" lon="0.69354">
        <ele>909.06</ele>
        <time>2020-05-20T08:13:47Z</time>
      </trkpt>
      <trkpt lat="42.93974" lon="0.69366">
        <ele>911.95</ele>
        <time>2020-05-20T08:14:11Z</time>
      </trkpt>
      <trkpt lat="42.93967" lon="0.69376">
        <ele>913.39</ele>
        <time>2020-05-20T08:14:28Z</time>
      </trkpt>
      <trkpt lat="42.93962" lon="0.69388">
        <ele>914.83</ele>
        <time>2020-05-20T08:14:42Z</time>
      </trkpt>
      <trkpt lat="42.93948" lon="0.69397">
        <ele>917.24</ele>
        <time>2020-05-20T08:15:06Z</time>
      </trkpt>
      <trkpt lat="42.93934" lon="0.69409">
        <ele>920.12</ele>
        <time>2020-05-20T08:15:33Z</time>
      </trkpt>
      <trkpt lat="42.93915" lon="0.69413">
        <ele>922.04</ele>
        <time>2020-05-20T08:15:53Z</time>
      </trkpt>
      <trkpt lat="42.93899" lon="0.69425">
        <ele>923.96</ele>
        <time>2020-05-20T08:16:10Z</time>
      </trkpt>
      <trkpt lat="42.93894" lon="0.69439">
        <ele>925.89</ele>
        <time>2020-05-20T08:16:25Z</time>
      </trkpt>
      <trkpt lat="42.93894" lon="0.69452">
        <ele>927.81</ele>
        <time>2020-05-20T08:16:42Z</time>
      </trkpt>
      <trkpt lat="42.93885" lon="0.69463">
        <ele>930.69</ele>
        <time>2020-05-20T08:17:06Z</time>
      </trkpt>
      <trkpt lat="42.93866" lon="0.69459">
        <ele>933.1</ele>
        <time>2020-05-20T08:17:32Z</time>
      </trkpt>
      <trkpt lat="42.93853" lon="0.69468">
        <ele>935.5</ele>
        <time>2020-05-20T08:17:52Z</time>
      </trkpt>
      <trkpt lat="42.93833" lon="0.69467">
        <ele>939.35</ele>
        <time>2020-05-20T08:18:25Z</time>
      </trkpt>
      <trkpt lat="42.93814" lon="0.69464">
        <ele>941.27</ele>
        <time>2020-05-20T08:18:44Z</time>
      </trkpt>
      <trkpt lat="42.93799" lon="0.69464">
        <ele>944.63</ele>
        <time>2020-05-20T08:19:04Z</time>
      </trkpt>
      <trkpt lat="42.93782" lon="0.69466">
        <ele>947.04</ele>
        <time>2020-05-20T08:19:27Z</time>
      </trkpt>
      <trkpt lat="42.93768" lon="0.69473">
        <ele>949.92</ele>
        <time>2020-05-20T08:19:52Z</time>
      </trkpt>
      <trkpt lat="42.93751" lon="0.69481">
        <ele>952.8</ele>
        <time>2020-05-20T08:20:12Z</time>
      </trkpt>
      <trkpt lat="42.93735" lon="0.69493">
        <ele>954.73</ele>
        <time>2020-05-20T08:20:32Z</time>
      </trkpt>
      <trkpt lat="42.93742" lon="0.69493">
        <ele>956.17</ele>
        <time>2020-05-20T08:20:46Z</time>
      </trkpt>
      <trkpt lat="42.93752" lon="0.69499">
        <ele>957.61</ele>
        <time>2020-05-20T08:21:00Z</time>
      </trkpt>
      <trkpt lat="42.93762" lon="0.69496">
        <ele>959.53</ele>
        <time>2020-05-20T08:21:15Z</time>
      </trkpt>
      <trkpt lat="42.93772" lon="0.69499">
        <ele>960.98</ele>
        <time>2020-05-20T08:21:30Z</time>
      </trkpt>
      <trkpt lat="42.93783" lon="0.69498">
        <ele>962.9</ele>
        <time>2020-05-20T08:21:44Z</time>
      </trkpt>
      <trkpt lat="42.93792" lon="0.69505">
        <ele>963.86</ele>
        <time>2020-05-20T08:21:59Z</time>
      </trkpt>
      <trkpt lat="42.938" lon="0.69515">
        <ele>966.26</ele>
        <time>2020-05-20T08:22:17Z</time>
      </trkpt>
      <trkpt lat="42.9381" lon="0.69527">
        <ele>968.18</ele>
        <time>2020-05-20T08:22:37Z</time>
      </trkpt>
      <trkpt lat="42.93822" lon="0.69537">
        <ele>970.11</ele>
        <time>2020-05-20T08:22:54Z</time>
      </trkpt>
      <trkpt lat="42.93838" lon="0.69547">
        <ele>971.55</ele>
        <time>2020-05-20T08:23:12Z</time>
      </trkpt>
      <trkpt lat="42.93854" lon="0.69549">
        <ele>974.91</ele>
        <time>2020-05-20T08:23:35Z</time>
      </trkpt>
      <trkpt lat="42.93865" lon="0.69557">
        <ele>976.84</ele>
        <time>2020-05-20T08:23:50Z</time>
      </trkpt>
      <trkpt lat="42.93877" lon="0.69565">
        <ele>978.76</ele>
        <time>2020-05-20T08:24:06Z</time>
      </trkpt>
      <trkpt lat="42.93888" lon="0.69569">
        <ele>980.68</ele>
        <time>2020-05-20T08:24:22Z</time>
      </trkpt>
      <trkpt lat="42.93887" lon="0.69569">
        <ele>982.12</ele>
        <time>2020-05-20T08:24:39Z</time>
      </trkpt>
      <trkpt lat="42.93873" lon="0.69577">
        <ele>984.53</ele>
        <time>2020-05-20T08:25:05Z</time>
      </trkpt>
      <trkpt lat="42.93857" lon="0.69578">
        <ele>987.41</ele>
        <time>2020-05-20T08:25:27Z</time>
      </trkpt>
      <trkpt lat="42.93837" lon="0.69584">
        <ele>989.81</ele>
        <time>2020-05-20T08:25:52Z</time>
      </trkpt>
      <trkpt lat="42.93822" lon="0.69579">
        <ele>992.7</ele>
        <time>2020-05-20T08:26:15Z</time>
      </trkpt>
      <trkpt lat="42.93804" lon="0.69575">
        <ele>995.1</ele>
        <time>2020-05-20T08:26:35Z</time>
      </trkpt>
      <trkpt lat="42.93787" lon="0.69578">
        <ele>998.47</ele>
        <time>2020-05-20T08:26:57Z</time>
      </trkpt>
      <trkpt lat="42.93774" lon="0.69581">
        <ele>999.43</ele>
        <time>2020-05-20T08:27:15Z</time>
      </trkpt>
      <trkpt lat="42.9378" lon="0.69586">
        <ele>1002.31</ele>
        <time>2020-05-20T08:27:29Z</time>
      </trkpt>
      <trkpt lat="42.93788" lon="0.69591">
        <ele>1003.27</ele>
        <time>2020-05-20T08:27:44Z</time>
      </trkpt>
      <trkpt lat="42.93797" lon="0.69594">
        <ele>1004.72</ele>
        <time>2020-05-20T08:27:59Z</time>
      </trkpt>
      <trkpt lat="42.93808" lon="0.69602">
        <ele>1007.12</ele>
        <time>2020-05-20T08:28:14Z</time>
      </trkpt>
      <trkpt lat="42.93819" lon="0.69609">
        <ele>1008.08</ele>
        <time>2020-05-20T08:28:28Z</time>
      </trkpt>
      <trkpt lat="42.93829" lon="0.69621">
        <ele>1010</ele>
        <time>2020-05-20T08:28:46Z</time>
      </trkpt>
      <trkpt lat="42.93841" lon="0.69627">
        <ele>1011.93</ele>
        <time>2020-05-20T08:29:03Z</time>
      </trkpt>
      <trkpt lat="42.93853" lon="0.69633">
        <ele>1014.33</ele>
        <time>2020-05-20T08:29:18Z</time>
      </trkpt>
      <trkpt lat="42.93864" lon="0.69634">
        <ele>1016.25</ele>
        <time>2020-05-20T08:29:33Z</time>
      </trkpt>
      <trkpt lat="42.93875" lon="0.69636">
        <ele>1018.65</ele>
        <time>2020-05-20T08:29:49Z</time>
      </trkpt>
      <trkpt lat="42.93889" lon="0.69645">
        <ele>1020.58</ele>
        <time>2020-05-20T08:30:07Z</time>
      </trkpt>
      <trkpt lat="42.939" lon="0.69646">
        <ele>1022.98</ele>
        <time>2020-05-20T08:30:23Z</time>
      </trkpt>
      <trkpt lat="42.93896" lon="0.69653">
        <ele>1025.38</ele>
        <time>2020-05-20T08:30:40Z</time>
      </trkpt>
      <trkpt lat="42.93885" lon="0.69658">
        <ele>1026.83</ele>
        <time>2020-05-20T08:30:53Z</time>
      </trkpt>
      <trkpt lat="42.93875" lon="0.69663">
        <ele>1029.23</ele>
        <time>2020-05-20T08:31:17Z</time>
      </trkpt>
      <trkpt lat="42.93854" lon="0.69663">
        <ele>1031.15</ele>
        <time>2020-05-20T08:31:41Z</time>
      </trkpt>
      <trkpt lat="42.93838" lon="0.69663">
        <ele>1033.55</ele>
        <time>2020-05-20T08:32:00Z</time>
      </trkpt>
      <trkpt lat="42.93825" lon="0.69665">
        <ele>1035.96</ele>
        <time>2020-05-20T08:32:20Z</time>
      </trkpt>
      <trkpt lat="42.93811" lon="0.69665">
        <ele>1036.92</ele>
        <time>2020-05-20T08:32:35Z</time>
      </trkpt>
      <trkpt lat="42.93797" lon="0.6967">
        <ele>1038.84</ele>
        <time>2020-05-20T08:32:50Z</time>
      </trkpt>
      <trkpt lat="42.93795" lon="0.6968">
        <ele>1040.28</ele>
        <time>2020-05-20T08:33:02Z</time>
      </trkpt>
      <trkpt lat="42.93797" lon="0.69691">
        <ele>1041.73</ele>
        <time>2020-05-20T08:33:18Z</time>
      </trkpt>
      <trkpt lat="42.93805" lon="0.69704">
        <ele>1043.17</ele>
        <time>2020-05-20T08:33:34Z</time>
      </trkpt>
      <trkpt lat="42.93816" lon="0.6971">
        <ele>1046.05</ele>
        <time>2020-05-20T08:33:51Z</time>
      </trkpt>
      <trkpt lat="42.93827" lon="0.69709">
        <ele>1047.01</ele>
        <time>2020-05-20T08:34:07Z</time>
      </trkpt>
      <trkpt lat="42.93838" lon="0.69708">
        <ele>1049.42</ele>
        <time>2020-05-20T08:34:23Z</time>
      </trkpt>
      <trkpt lat="42.93847" lon="0.69708">
        <ele>1051.82</ele>
        <time>2020-05-20T08:34:39Z</time>
      </trkpt>
      <trkpt lat="42.93857" lon="0.6971">
        <ele>1053.74</ele>
        <time>2020-05-20T08:34:54Z</time>
      </trkpt>
      <trkpt lat="42.93869" lon="0.6971">
        <ele>1055.67</ele>
        <time>2020-05-20T08:35:10Z</time>
      </trkpt>
      <trkpt lat="42.93878" lon="0.69712">
        <ele>1058.55</ele>
        <time>2020-05-20T08:35:27Z</time>
      </trkpt>
      <trkpt lat="42.93887" lon="0.69716">
        <ele>1060.47</ele>
        <time>2020-05-20T08:35:45Z</time>
      </trkpt>
      <trkpt lat="42.93898" lon="0.6972">
        <ele>1062.87</ele>
        <time>2020-05-20T08:36:01Z</time>
      </trkpt>
      <trkpt lat="42.93909" lon="0.69722">
        <ele>1064.8</ele>
        <time>2020-05-20T08:36:19Z</time>
      </trkpt>
      <trkpt lat="42.93917" lon="0.69723">
        <ele>1065.76</ele>
        <time>2020-05-20T08:36:32Z</time>
      </trkpt>
      <trkpt lat="42.93927" lon="0.69723">
        <ele>1068.64</ele>
        <time>2020-05-20T08:36:49Z</time>
      </trkpt>
      <trkpt lat="42.93936" lon="0.6972">
        <ele>1070.08</ele>
        <time>2020-05-20T08:37:07Z</time>
      </trkpt>
      <trkpt lat="42.93945" lon="0.69718">
        <ele>1072.49</ele>
        <time>2020-05-20T08:37:24Z</time>
      </trkpt>
      <trkpt lat="42.93958" lon="0.69714">
        <ele>1074.89</ele>
        <time>2020-05-20T08:37:40Z</time>
      </trkpt>
      <trkpt lat="42.93967" lon="0.69715">
        <ele>1076.33</ele>
        <time>2020-05-20T08:37:56Z</time>
      </trkpt>
      <trkpt lat="42.93974" lon="0.69718">
        <ele>1079.22</ele>
        <time>2020-05-20T08:38:17Z</time>
      </trkpt>
      <trkpt lat="42.93967" lon="0.69726">
        <ele>1080.66</ele>
        <time>2020-05-20T08:38:36Z</time>
      </trkpt>
      <trkpt lat="42.93956" lon="0.69733">
        <ele>1082.1</ele>
        <time>2020-05-20T08:38:53Z</time>
      </trkpt>
      <trkpt lat="42.93947" lon="0.69744">
        <ele>1084.5</ele>
        <time>2020-05-20T08:39:07Z</time>
      </trkpt>
      <trkpt lat="42.93939" lon="0.6975">
        <ele>1085.95</ele>
        <time>2020-05-20T08:39:22Z</time>
      </trkpt>
      <trkpt lat="42.93927" lon="0.69759">
        <ele>1087.87</ele>
        <time>2020-05-20T08:39:39Z</time>
      </trkpt>
      <trkpt lat="42.93934" lon="0.6976">
        <ele>1089.31</ele>
        <time>2020-05-20T08:39:51Z</time>
      </trkpt>
      <trkpt lat="42.93943" lon="0.69763">
        <ele>1090.27</ele>
        <time>2020-05-20T08:40:03Z</time>
      </trkpt>
      <trkpt lat="42.93953" lon="0.69771">
        <ele>1092.2</ele>
        <time>2020-05-20T08:40:18Z</time>
      </trkpt>
      <trkpt lat="42.93961" lon="0.69778">
        <ele>1093.64</ele>
        <time>2020-05-20T08:40:33Z</time>
      </trkpt>
      <trkpt lat="42.93972" lon="0.69784">
        <ele>1096.04</ele>
        <time>2020-05-20T08:40:49Z</time>
      </trkpt>
      <trkpt lat="42.93981" lon="0.69784">
        <ele>1097.96</ele>
        <time>2020-05-20T08:41:02Z</time>
      </trkpt>
      <trkpt lat="42.93993" lon="0.69781">
        <ele>1100.37</ele>
        <time>2020-05-20T08:41:22Z</time>
      </trkpt>
      <trkpt lat="42.93991" lon="0.69779">
        <ele>1102.77</ele>
        <time>2020-05-20T08:41:40Z</time>
      </trkpt>
      <trkpt lat="42.93983" lon="0.69771">
        <ele>1104.21</ele>
        <time>2020-05-20T08:42:00Z</time>
      </trkpt>
      <trkpt lat="42.93988" lon="0.69772">
        <ele>1105.65</ele>
        <time>2020-05-20T08:42:15Z</time>
      </trkpt>
      <trkpt lat="42.93997" lon="0.69765">
        <ele>1106.61</ele>
        <time>2020-05-20T08:42:28Z</time>
      </trkpt>
      <trkpt lat="42.94007" lon="0.69762">
        <ele>1108.54</ele>
        <time>2020-05-20T08:42:40Z</time>
      </trkpt>
      <trkpt lat="42.94016" lon="0.69762">
        <ele>1109.5</ele>
        <time>2020-05-20T08:42:51Z</time>
      </trkpt>
      <trkpt lat="42.94026" lon="0.69761">
        <ele>1110.46</ele>
        <time>2020-05-20T08:43:02Z</time>
      </trkpt>
      <trkpt lat="42.94036" lon="0.69765">
        <ele>1111.42</ele>
        <time>2020-05-20T08:43:15Z</time>
      </trkpt>
      <trkpt lat="42.94046" lon="0.69769">
        <ele>1113.34</ele>
        <time>2020-05-20T08:43:28Z</time>
      </trkpt>
      <trkpt lat="42.94056" lon="0.69768">
        <ele>1115.27</ele>
        <time>2020-05-20T08:43:41Z</time>
      </trkpt>
      <trkpt lat="42.94067" lon="0.69768">
        <ele>1117.19</ele>
        <time>2020-05-20T08:43:58Z</time>
      </trkpt>
      <trkpt lat="42.9408" lon="0.69771">
        <ele>1119.11</ele>
        <time>2020-05-20T08:44:18Z</time>
      </trkpt>
      <trkpt lat="42.94092" lon="0.6977">
        <ele>1121.03</ele>
        <time>2020-05-20T08:44:38Z</time>
      </trkpt>
      <trkpt lat="42.94103" lon="0.69765">
        <ele>1122.96</ele>
        <time>2020-05-20T08:44:54Z</time>
      </trkpt>
      <trkpt lat="42.94117" lon="0.69767">
        <ele>1125.84</ele>
        <time>2020-05-20T08:45:13Z</time>
      </trkpt>
      <trkpt lat="42.94129" lon="0.69765">
        <ele>1127.76</ele>
        <time>2020-05-20T08:45:32Z</time>
      </trkpt>
      <trkpt lat="42.94141" lon="0.69765">
        <ele>1129.69</ele>
        <time>2020-05-20T08:45:49Z</time>
      </trkpt>
      <trkpt lat="42.94136" lon="0.69756">
        <ele>1132.57</ele>
        <time>2020-05-20T08:46:06Z</time>
      </trkpt>
      <trkpt lat="42.94127" lon="0.6975">
        <ele>1134.49</ele>
        <time>2020-05-20T08:46:24Z</time>
      </trkpt>
      <trkpt lat="42.94124" lon="0.69743">
        <ele>1136.9</ele>
        <time>2020-05-20T08:46:41Z</time>
      </trkpt>
      <trkpt lat="42.94133" lon="0.69744">
        <ele>1138.34</ele>
        <time>2020-05-20T08:46:56Z</time>
      </trkpt>
      <trkpt lat="42.94143" lon="0.69748">
        <ele>1140.74</ele>
        <time>2020-05-20T08:47:14Z</time>
      </trkpt>
      <trkpt lat="42.94151" lon="0.69752">
        <ele>1142.18</ele>
        <time>2020-05-20T08:47:33Z</time>
      </trkpt>
      <trkpt lat="42.94162" lon="0.69761">
        <ele>1143.63</ele>
        <time>2020-05-20T08:47:47Z</time>
      </trkpt>
      <trkpt lat="42.94172" lon="0.69772">
        <ele>1146.03</ele>
        <time>2020-05-20T08:48:00Z</time>
      </trkpt>
      <trkpt lat="42.94179" lon="0.69782">
        <ele>1146.99</ele>
        <time>2020-05-20T08:48:13Z</time>
      </trkpt>
      <trkpt lat="42.94188" lon="0.69783">
        <ele>1148.91</ele>
        <time>2020-05-20T08:48:29Z</time>
      </trkpt>
      <trkpt lat="42.942" lon="0.69787">
        <ele>1151.32</ele>
        <time>2020-05-20T08:48:45Z</time>
      </trkpt>
      <trkpt lat="42.9421" lon="0.69793">
        <ele>1153.24</ele>
        <time>2020-05-20T08:49:00Z</time>
      </trkpt>
      <trkpt lat="42.94213" lon="0.6979">
        <ele>1156.6</ele>
        <time>2020-05-20T08:49:20Z</time>
      </trkpt>
      <trkpt lat="42.9421" lon="0.69777">
        <ele>1158.53</ele>
        <time>2020-05-20T08:49:36Z</time>
      </trkpt>
      <trkpt lat="42.94201" lon="0.69766">
        <ele>1159.97</ele>
        <time>2020-05-20T08:49:50Z</time>
      </trkpt>
      <trkpt lat="42.94201" lon="0.69762">
        <ele>1162.37</ele>
        <time>2020-05-20T08:50:07Z</time>
      </trkpt>
      <trkpt lat="42.94211" lon="0.69765">
        <ele>1164.29</ele>
        <time>2020-05-20T08:50:26Z</time>
      </trkpt>
      <trkpt lat="42.94213" lon="0.69762">
        <ele>1167.18</ele>
        <time>2020-05-20T08:50:40Z</time>
      </trkpt>
      <trkpt lat="42.94207" lon="0.69751">
        <ele>1169.1</ele>
        <time>2020-05-20T08:50:58Z</time>
      </trkpt>
      <trkpt lat="42.94213" lon="0.69757">
        <ele>1170.06</ele>
        <time>2020-05-20T08:51:30Z</time>
      </trkpt>
      <trkpt lat="42.94221" lon="0.69766">
        <ele>1172.95</ele>
        <time>2020-05-20T08:51:50Z</time>
      </trkpt>
      <trkpt lat="42.94229" lon="0.69776">
        <ele>1174.39</ele>
        <time>2020-05-20T08:52:04Z</time>
      </trkpt>
      <trkpt lat="42.94238" lon="0.69783">
        <ele>1177.27</ele>
        <time>2020-05-20T08:52:20Z</time>
      </trkpt>
      <trkpt lat="42.94236" lon="0.69774">
        <ele>1180.16</ele>
        <time>2020-05-20T08:52:38Z</time>
      </trkpt>
      <trkpt lat="42.94229" lon="0.69766">
        <ele>1181.12</ele>
        <time>2020-05-20T08:52:52Z</time>
      </trkpt>
      <trkpt lat="42.94223" lon="0.69756">
        <ele>1183.52</ele>
        <time>2020-05-20T08:53:08Z</time>
      </trkpt>
      <trkpt lat="42.94233" lon="0.69759">
        <ele>1184.48</ele>
        <time>2020-05-20T08:53:26Z</time>
      </trkpt>
      <trkpt lat="42.94232" lon="0.69756">
        <ele>1186.88</ele>
        <time>2020-05-20T08:53:44Z</time>
      </trkpt>
      <trkpt lat="42.94225" lon="0.69747">
        <ele>1188.81</ele>
        <time>2020-05-20T08:53:58Z</time>
      </trkpt>
      <trkpt lat="42.94219" lon="0.69735">
        <ele>1190.25</ele>
        <time>2020-05-20T08:54:10Z</time>
      </trkpt>
      <trkpt lat="42.94215" lon="0.69724">
        <ele>1191.69</ele>
        <time>2020-05-20T08:54:23Z</time>
      </trkpt>
      <trkpt lat="42.94216" lon="0.69709">
        <ele>1193.61</ele>
        <time>2020-05-20T08:54:42Z</time>
      </trkpt>
      <trkpt lat="42.94223" lon="0.69697">
        <ele>1193.61</ele>
        <time>2020-05-20T08:54:55Z</time>
      </trkpt>
      <trkpt lat="42.9423" lon="0.69686">
        <ele>1194.09</ele>
        <time>2020-05-20T08:55:08Z</time>
      </trkpt>
      <trkpt lat="42.94237" lon="0.69676">
        <ele>1196.5</ele>
        <time>2020-05-20T08:55:22Z</time>
      </trkpt>
      <trkpt lat="42.94245" lon="0.69661">
        <ele>1199.38</ele>
        <time>2020-05-20T08:55:46Z</time>
      </trkpt>
      <trkpt lat="42.94247" lon="0.69646">
        <ele>1201.79</ele>
        <time>2020-05-20T08:56:02Z</time>
      </trkpt>
      <trkpt lat="42.94245" lon="0.69625">
        <ele>1204.67</ele>
        <time>2020-05-20T08:56:23Z</time>
      </trkpt>
      <trkpt lat="42.94256" lon="0.69634">
        <ele>1207.07</ele>
        <time>2020-05-20T08:56:43Z</time>
      </trkpt>
      <trkpt lat="42.94258" lon="0.69648">
        <ele>1208.51</ele>
        <time>2020-05-20T08:57:00Z</time>
      </trkpt>
      <trkpt lat="42.94256" lon="0.69661">
        <ele>1211.4</ele>
        <time>2020-05-20T08:57:15Z</time>
      </trkpt>
      <trkpt lat="42.94258" lon="0.69674">
        <ele>1213.8</ele>
        <time>2020-05-20T08:57:30Z</time>
      </trkpt>
      <trkpt lat="42.94261" lon="0.69669">
        <ele>1216.21</ele>
        <time>2020-05-20T08:57:46Z</time>
      </trkpt>
      <trkpt lat="42.94268" lon="0.69656">
        <ele>1218.61</ele>
        <time>2020-05-20T08:58:04Z</time>
      </trkpt>
      <trkpt lat="42.94269" lon="0.69665">
        <ele>1221.49</ele>
        <time>2020-05-20T08:58:23Z</time>
      </trkpt>
      <trkpt lat="42.94269" lon="0.69682">
        <ele>1223.42</ele>
        <time>2020-05-20T08:58:44Z</time>
      </trkpt>
      <trkpt lat="42.94271" lon="0.69697">
        <ele>1225.34</ele>
        <time>2020-05-20T08:59:00Z</time>
      </trkpt>
      <trkpt lat="42.94278" lon="0.69714">
        <ele>1227.74</ele>
        <time>2020-05-20T08:59:16Z</time>
      </trkpt>
      <trkpt lat="42.94281" lon="0.69716">
        <ele>1229.18</ele>
        <time>2020-05-20T08:59:32Z</time>
      </trkpt>
      <trkpt lat="42.94283" lon="0.69704">
        <ele>1230.62</ele>
        <time>2020-05-20T08:59:47Z</time>
      </trkpt>
      <trkpt lat="42.94287" lon="0.69691">
        <ele>1232.55</ele>
        <time>2020-05-20T09:00:05Z</time>
      </trkpt>
      <trkpt lat="42.94294" lon="0.69672">
        <ele>1233.51</ele>
        <time>2020-05-20T09:00:21Z</time>
      </trkpt>
      <trkpt lat="42.94298" lon="0.6966">
        <ele>1235.43</ele>
        <time>2020-05-20T09:00:38Z</time>
      </trkpt>
      <trkpt lat="42.94299" lon="0.69644">
        <ele>1236.87</ele>
        <time>2020-05-20T09:00:56Z</time>
      </trkpt>
      <trkpt lat="42.94304" lon="0.69628">
        <ele>1239.76</ele>
        <time>2020-05-20T09:01:18Z</time>
      </trkpt>
      <trkpt lat="42.94311" lon="0.69615">
        <ele>1241.2</ele>
        <time>2020-05-20T09:01:32Z</time>
      </trkpt>
      <trkpt lat="42.9432" lon="0.69607">
        <ele>1241.68</ele>
        <time>2020-05-20T09:01:46Z</time>
      </trkpt>
      <trkpt lat="42.94328" lon="0.696">
        <ele>1243.6</ele>
        <time>2020-05-20T09:01:59Z</time>
      </trkpt>
      <trkpt lat="42.94337" lon="0.69592">
        <ele>1245.04</ele>
        <time>2020-05-20T09:02:11Z</time>
      </trkpt>
      <trkpt lat="42.94344" lon="0.69583">
        <ele>1246.49</ele>
        <time>2020-05-20T09:02:24Z</time>
      </trkpt>
      <trkpt lat="42.94349" lon="0.69573">
        <ele>1247.45</ele>
        <time>2020-05-20T09:02:37Z</time>
      </trkpt>
      <trkpt lat="42.94357" lon="0.69562">
        <ele>1248.89</ele>
        <time>2020-05-20T09:02:53Z</time>
      </trkpt>
      <trkpt lat="42.94364" lon="0.6955">
        <ele>1249.37</ele>
        <time>2020-05-20T09:03:06Z</time>
      </trkpt>
      <trkpt lat="42.94369" lon="0.69541">
        <ele>1251.29</ele>
        <time>2020-05-20T09:03:21Z</time>
      </trkpt>
      <trkpt lat="42.94379" lon="0.69529">
        <ele>1254.66</ele>
        <time>2020-05-20T09:03:42Z</time>
      </trkpt>
      <trkpt lat="42.94386" lon="0.69522">
        <ele>1257.06</ele>
        <time>2020-05-20T09:03:58Z</time>
      </trkpt>
      <trkpt lat="42.94393" lon="0.69514">
        <ele>1258.98</ele>
        <time>2020-05-20T09:04:16Z</time>
      </trkpt>
      <trkpt lat="42.94396" lon="0.69492">
        <ele>1261.39</ele>
        <time>2020-05-20T09:04:31Z</time>
      </trkpt>
      <trkpt lat="42.94398" lon="0.69482">
        <ele>1263.31</ele>
        <time>2020-05-20T09:04:45Z</time>
      </trkpt>
      <trkpt lat="42.94405" lon="0.69487">
        <ele>1266.19</ele>
        <time>2020-05-20T09:05:01Z</time>
      </trkpt>
      <trkpt lat="42.94409" lon="0.69495">
        <ele>1266.67</ele>
        <time>2020-05-20T09:05:13Z</time>
      </trkpt>
      <trkpt lat="42.94412" lon="0.69494">
        <ele>1270.52</ele>
        <time>2020-05-20T09:05:29Z</time>
      </trkpt>
      <trkpt lat="42.94414" lon="0.69485">
        <ele>1271.96</ele>
        <time>2020-05-20T09:05:42Z</time>
      </trkpt>
      <trkpt lat="42.94417" lon="0.69475">
        <ele>1273.88</ele>
        <time>2020-05-20T09:05:55Z</time>
      </trkpt>
      <trkpt lat="42.94418" lon="0.69465">
        <ele>1275.33</ele>
        <time>2020-05-20T09:06:11Z</time>
      </trkpt>
      <trkpt lat="42.94412" lon="0.6945">
        <ele>1277.73</ele>
        <time>2020-05-20T09:06:28Z</time>
      </trkpt>
      <trkpt lat="42.94409" lon="0.69436">
        <ele>1279.17</ele>
        <time>2020-05-20T09:06:42Z</time>
      </trkpt>
      <trkpt lat="42.94412" lon="0.69427">
        <ele>1281.57</ele>
        <time>2020-05-20T09:07:11Z</time>
      </trkpt>
      <trkpt lat="42.94417" lon="0.69433">
        <ele>1283.02</ele>
        <time>2020-05-20T09:07:28Z</time>
      </trkpt>
      <trkpt lat="42.94419" lon="0.69421">
        <ele>1284.94</ele>
        <time>2020-05-20T09:07:44Z</time>
      </trkpt>
      <trkpt lat="42.94422" lon="0.69408">
        <ele>1286.38</ele>
        <time>2020-05-20T09:07:56Z</time>
      </trkpt>
      <trkpt lat="42.94426" lon="0.69397">
        <ele>1288.78</ele>
        <time>2020-05-20T09:08:10Z</time>
      </trkpt>
      <trkpt lat="42.94431" lon="0.69386">
        <ele>1289.75</ele>
        <time>2020-05-20T09:08:26Z</time>
      </trkpt>
      <trkpt lat="42.94437" lon="0.69378">
        <ele>1292.63</ele>
        <time>2020-05-20T09:08:42Z</time>
      </trkpt>
      <trkpt lat="42.94439" lon="0.69362">
        <ele>1294.55</ele>
        <time>2020-05-20T09:08:58Z</time>
      </trkpt>
      <trkpt lat="42.94441" lon="0.69366">
        <ele>1296.96</ele>
        <time>2020-05-20T09:09:17Z</time>
      </trkpt>
      <trkpt lat="42.94445" lon="0.6938">
        <ele>1298.4</ele>
        <time>2020-05-20T09:09:32Z</time>
      </trkpt>
      <trkpt lat="42.94449" lon="0.69388">
        <ele>1301.28</ele>
        <time>2020-05-20T09:09:49Z</time>
      </trkpt>
      <trkpt lat="42.94454" lon="0.69377">
        <ele>1303.69</ele>
        <time>2020-05-20T09:10:07Z</time>
      </trkpt>
      <trkpt lat="42.94455" lon="0.69365">
        <ele>1305.61</ele>
        <time>2020-05-20T09:10:22Z</time>
      </trkpt>
      <trkpt lat="42.94459" lon="0.69357">
        <ele>1309.45</ele>
        <time>2020-05-20T09:10:48Z</time>
      </trkpt>
      <trkpt lat="42.94464" lon="0.69355">
        <ele>1315.22</ele>
        <time>2020-05-20T09:11:17Z</time>
      </trkpt>
      <trkpt lat="42.94473" lon="0.69359">
        <ele>1317.62</ele>
        <time>2020-05-20T09:11:48Z</time>
      </trkpt>
      <trkpt lat="42.94477" lon="0.69363">
        <ele>1320.51</ele>
        <time>2020-05-20T09:12:06Z</time>
      </trkpt>
      <trkpt lat="42.94475" lon="0.69354">
        <ele>1323.87</ele>
        <time>2020-05-20T09:12:31Z</time>
      </trkpt>
      <trkpt lat="42.94476" lon="0.69341">
        <ele>1326.28</ele>
        <time>2020-05-20T09:12:49Z</time>
      </trkpt>
      <trkpt lat="42.94481" lon="0.69349">
        <ele>1328.2</ele>
        <time>2020-05-20T09:13:05Z</time>
      </trkpt>
      <trkpt lat="42.94487" lon="0.69356">
        <ele>1331.08</ele>
        <time>2020-05-20T09:13:24Z</time>
      </trkpt>
      <trkpt lat="42.94484" lon="0.69344">
        <ele>1333.49</ele>
        <time>2020-05-20T09:13:42Z</time>
      </trkpt>
      <trkpt lat="42.94484" lon="0.69328">
        <ele>1335.41</ele>
        <time>2020-05-20T09:14:01Z</time>
      </trkpt>
      <trkpt lat="42.94481" lon="0.69313">
        <ele>1337.81</ele>
        <time>2020-05-20T09:14:20Z</time>
      </trkpt>
      <trkpt lat="42.94476" lon="0.69302">
        <ele>1339.25</ele>
        <time>2020-05-20T09:14:39Z</time>
      </trkpt>
      <trkpt lat="42.94481" lon="0.69305">
        <ele>1342.14</ele>
        <time>2020-05-20T09:14:56Z</time>
      </trkpt>
      <trkpt lat="42.94489" lon="0.69312">
        <ele>1345.02</ele>
        <time>2020-05-20T09:15:18Z</time>
      </trkpt>
      <trkpt lat="42.94499" lon="0.69327">
        <ele>1347.91</ele>
        <time>2020-05-20T09:15:40Z</time>
      </trkpt>
      <trkpt lat="42.94506" lon="0.69322">
        <ele>1351.27</ele>
        <time>2020-05-20T09:16:00Z</time>
      </trkpt>
      <trkpt lat="42.945" lon="0.69313">
        <ele>1352.23</ele>
        <time>2020-05-20T09:16:19Z</time>
      </trkpt>
      <trkpt lat="42.94497" lon="0.69299">
        <ele>1355.12</ele>
        <time>2020-05-20T09:16:39Z</time>
      </trkpt>
      <trkpt lat="42.94487" lon="0.69296">
        <ele>1356.56</ele>
        <time>2020-05-20T09:16:57Z</time>
      </trkpt>
      <trkpt lat="42.94493" lon="0.69259">
        <ele>1359.92</ele>
        <time>2020-05-20T09:17:17Z</time>
      </trkpt>
      <trkpt lat="42.94491" lon="0.69248">
        <ele>1361.84</ele>
        <time>2020-05-20T09:17:34Z</time>
      </trkpt>
      <trkpt lat="42.94496" lon="0.69242">
        <ele>1365.21</ele>
        <time>2020-05-20T09:17:59Z</time>
      </trkpt>
      <trkpt lat="42.94504" lon="0.69248">
        <ele>1368.09</ele>
        <time>2020-05-20T09:18:24Z</time>
      </trkpt>
      <trkpt lat="42.9451" lon="0.69257">
        <ele>1370.98</ele>
        <time>2020-05-20T09:18:50Z</time>
      </trkpt>
      <trkpt lat="42.94506" lon="0.69243">
        <ele>1374.34</ele>
        <time>2020-05-20T09:19:33Z</time>
      </trkpt>
      <trkpt lat="42.94504" lon="0.69233">
        <ele>1376.26</ele>
        <time>2020-05-20T09:19:52Z</time>
      </trkpt>
      <trkpt lat="42.94504" lon="0.69214">
        <ele>1379.15</ele>
        <time>2020-05-20T09:20:15Z</time>
      </trkpt>
      <trkpt lat="42.94511" lon="0.69212">
        <ele>1382.51</ele>
        <time>2020-05-20T09:20:38Z</time>
      </trkpt>
      <trkpt lat="42.94518" lon="0.69221">
        <ele>1385.4</ele>
        <time>2020-05-20T09:21:00Z</time>
      </trkpt>
      <trkpt lat="42.94529" lon="0.69236">
        <ele>1388.76</ele>
        <time>2020-05-20T09:21:27Z</time>
      </trkpt>
      <trkpt lat="42.94529" lon="0.69228">
        <ele>1391.17</ele>
        <time>2020-05-20T09:21:48Z</time>
      </trkpt>
      <trkpt lat="42.94526" lon="0.69217">
        <ele>1395.49</ele>
        <time>2020-05-20T09:22:13Z</time>
      </trkpt>
      <trkpt lat="42.94521" lon="0.69197">
        <ele>1398.37</ele>
        <time>2020-05-20T09:22:38Z</time>
      </trkpt>
      <trkpt lat="42.94511" lon="0.69192">
        <ele>1400.3</ele>
        <time>2020-05-20T09:22:52Z</time>
      </trkpt>
      <trkpt lat="42.94504" lon="0.69177">
        <ele>1404.14</ele>
        <time>2020-05-20T09:23:12Z</time>
      </trkpt>
      <trkpt lat="42.94511" lon="0.69155">
        <ele>1408.47</ele>
        <time>2020-05-20T09:23:46Z</time>
      </trkpt>
      <trkpt lat="42.94523" lon="0.6916">
        <ele>1410.87</ele>
        <time>2020-05-20T09:24:03Z</time>
      </trkpt>
      <trkpt lat="42.94532" lon="0.6917">
        <ele>1413.76</ele>
        <time>2020-05-20T09:24:22Z</time>
      </trkpt>
      <trkpt lat="42.94538" lon="0.69177">
        <ele>1416.64</ele>
        <time>2020-05-20T09:24:39Z</time>
      </trkpt>
      <trkpt lat="42.94542" lon="0.69176">
        <ele>1419.52</ele>
        <time>2020-05-20T09:24:58Z</time>
      </trkpt>
      <trkpt lat="42.94542" lon="0.69167">
        <ele>1422.89</ele>
        <time>2020-05-20T09:25:16Z</time>
      </trkpt>
      <trkpt lat="42.9454" lon="0.69159">
        <ele>1425.77</ele>
        <time>2020-05-20T09:25:35Z</time>
      </trkpt>
      <trkpt lat="42.94533" lon="0.69152">
        <ele>1427.7</ele>
        <time>2020-05-20T09:25:52Z</time>
      </trkpt>
      <trkpt lat="42.94544" lon="0.69148">
        <ele>1432.02</ele>
        <time>2020-05-20T09:26:20Z</time>
      </trkpt>
      <trkpt lat="42.94538" lon="0.69144">
        <ele>1436.35</ele>
        <time>2020-05-20T09:26:48Z</time>
      </trkpt>
      <trkpt lat="42.94534" lon="0.69135">
        <ele>1438.27</ele>
        <time>2020-05-20T09:27:04Z</time>
      </trkpt>
      <trkpt lat="42.94532" lon="0.69123">
        <ele>1442.11</ele>
        <time>2020-05-20T09:27:32Z</time>
      </trkpt>
      <trkpt lat="42.9454" lon="0.69125">
        <ele>1445.48</ele>
        <time>2020-05-20T09:27:55Z</time>
      </trkpt>
      <trkpt lat="42.94548" lon="0.69131">
        <ele>1447.88</ele>
        <time>2020-05-20T09:28:18Z</time>
      </trkpt>
      <trkpt lat="42.94547" lon="0.69125">
        <ele>1450.77</ele>
        <time>2020-05-20T09:28:37Z</time>
      </trkpt>
      <trkpt lat="42.94543" lon="0.69115">
        <ele>1454.13</ele>
        <time>2020-05-20T09:28:57Z</time>
      </trkpt>
      <trkpt lat="42.94551" lon="0.69115">
        <ele>1456.53</ele>
        <time>2020-05-20T09:29:17Z</time>
      </trkpt>
      <trkpt lat="42.94559" lon="0.69121">
        <ele>1459.9</ele>
        <time>2020-05-20T09:29:41Z</time>
      </trkpt>
      <trkpt lat="42.94562" lon="0.69112">
        <ele>1462.3</ele>
        <time>2020-05-20T09:29:59Z</time>
      </trkpt>
      <trkpt lat="42.94554" lon="0.69102">
        <ele>1463.26</ele>
        <time>2020-05-20T09:35:30Z</time>
      </trkpt>
      <trkpt lat="42.9456" lon="0.69099">
        <ele>1464.23</ele>
        <time>2020-05-20T09:42:10Z</time>
      </trkpt>
      <trkpt lat="42.94563" lon="0.69099">
        <ele>1461.82</ele>
        <time>2020-05-20T09:42:29Z</time>
      </trkpt>
      <trkpt lat="42.94573" lon="0.69105">
        <ele>1459.9</ele>
        <time>2020-05-20T09:42:45Z</time>
      </trkpt>
      <trkpt lat="42.94586" lon="0.69112">
        <ele>1458.46</ele>
        <time>2020-05-20T09:42:57Z</time>
      </trkpt>
      <trkpt lat="42.94601" lon="0.69122">
        <ele>1457.02</ele>
        <time>2020-05-20T09:43:14Z</time>
      </trkpt>
      <trkpt lat="42.94611" lon="0.69129">
        <ele>1456.05</ele>
        <time>2020-05-20T09:43:28Z</time>
      </trkpt>
      <trkpt lat="42.94621" lon="0.69134">
        <ele>1458.46</ele>
        <time>2020-05-20T09:43:45Z</time>
      </trkpt>
      <trkpt lat="42.94632" lon="0.69148">
        <ele>1462.3</ele>
        <time>2020-05-20T09:44:05Z</time>
      </trkpt>
      <trkpt lat="42.94636" lon="0.69159">
        <ele>1466.15</ele>
        <time>2020-05-20T09:44:30Z</time>
      </trkpt>
      <trkpt lat="42.94641" lon="0.6917">
        <ele>1469.99</ele>
        <time>2020-05-20T09:44:52Z</time>
      </trkpt>
      <trkpt lat="42.94645" lon="0.69203">
        <ele>1471.92</ele>
        <time>2020-05-20T09:45:11Z</time>
      </trkpt>
      <trkpt lat="42.94649" lon="0.69214">
        <ele>1474.32</ele>
        <time>2020-05-20T09:45:31Z</time>
      </trkpt>
      <trkpt lat="42.94658" lon="0.69216">
        <ele>1476.24</ele>
        <time>2020-05-20T09:46:04Z</time>
      </trkpt>
      <trkpt lat="42.94667" lon="0.6924">
        <ele>1475.28</ele>
        <time>2020-05-20T09:46:19Z</time>
      </trkpt>
      <trkpt lat="42.94675" lon="0.69278">
        <ele>1475.28</ele>
        <time>2020-05-20T09:46:34Z</time>
      </trkpt>
      <trkpt lat="42.94684" lon="0.69292">
        <ele>1473.84</ele>
        <time>2020-05-20T09:46:50Z</time>
      </trkpt>
      <trkpt lat="42.94692" lon="0.69307">
        <ele>1475.76</ele>
        <time>2020-05-20T09:47:06Z</time>
      </trkpt>
      <trkpt lat="42.94702" lon="0.69323">
        <ele>1478.16</ele>
        <time>2020-05-20T09:47:37Z</time>
      </trkpt>
      <trkpt lat="42.94711" lon="0.69336">
        <ele>1479.61</ele>
        <time>2020-05-20T09:47:51Z</time>
      </trkpt>
      <trkpt lat="42.9472" lon="0.69337">
        <ele>1480.57</ele>
        <time>2020-05-20T09:48:03Z</time>
      </trkpt>
      <trkpt lat="42.9473" lon="0.69336">
        <ele>1482.97</ele>
        <time>2020-05-20T09:48:18Z</time>
      </trkpt>
      <trkpt lat="42.94742" lon="0.69335">
        <ele>1482.49</ele>
        <time>2020-05-20T09:48:33Z</time>
      </trkpt>
      <trkpt lat="42.94754" lon="0.69335">
        <ele>1484.41</ele>
        <time>2020-05-20T09:48:46Z</time>
      </trkpt>
      <trkpt lat="42.94763" lon="0.69334">
        <ele>1483.93</ele>
        <time>2020-05-20T09:48:57Z</time>
      </trkpt>
      <trkpt lat="42.94773" lon="0.69332">
        <ele>1484.41</ele>
        <time>2020-05-20T09:49:08Z</time>
      </trkpt>
      <trkpt lat="42.94782" lon="0.69335">
        <ele>1488.26</ele>
        <time>2020-05-20T09:49:24Z</time>
      </trkpt>
      <trkpt lat="42.94792" lon="0.69334">
        <ele>1489.7</ele>
        <time>2020-05-20T09:49:38Z</time>
      </trkpt>
      <trkpt lat="42.94801" lon="0.69334">
        <ele>1493.06</ele>
        <time>2020-05-20T09:49:58Z</time>
      </trkpt>
      <trkpt lat="42.9481" lon="0.69335">
        <ele>1494.99</ele>
        <time>2020-05-20T09:50:13Z</time>
      </trkpt>
      <trkpt lat="42.94822" lon="0.69335">
        <ele>1497.87</ele>
        <time>2020-05-20T09:50:36Z</time>
      </trkpt>
      <trkpt lat="42.94835" lon="0.69335">
        <ele>1498.83</ele>
        <time>2020-05-20T09:50:55Z</time>
      </trkpt>
      <trkpt lat="42.94849" lon="0.69332">
        <ele>1497.87</ele>
        <time>2020-05-20T09:51:11Z</time>
      </trkpt>
      <trkpt lat="42.94864" lon="0.69331">
        <ele>1499.31</ele>
        <time>2020-05-20T09:51:28Z</time>
      </trkpt>
      <trkpt lat="42.9488" lon="0.69333">
        <ele>1503.16</ele>
        <time>2020-05-20T09:51:52Z</time>
      </trkpt>
      <trkpt lat="42.94889" lon="0.69337">
        <ele>1508.45</ele>
        <time>2020-05-20T09:52:25Z</time>
      </trkpt>
      <trkpt lat="42.949" lon="0.69338">
        <ele>1513.25</ele>
        <time>2020-05-20T09:52:52Z</time>
      </trkpt>
      <trkpt lat="42.94905" lon="0.6934">
        <ele>1516.14</ele>
        <time>2020-05-20T09:53:14Z</time>
      </trkpt>
      <trkpt lat="42.94901" lon="0.69352">
        <ele>1520.46</ele>
        <time>2020-05-20T09:53:45Z</time>
      </trkpt>
      <trkpt lat="42.94901" lon="0.69359">
        <ele>1523.35</ele>
        <time>2020-05-20T09:54:22Z</time>
      </trkpt>
      <trkpt lat="42.94908" lon="0.69363">
        <ele>1527.67</ele>
        <time>2020-05-20T09:54:50Z</time>
      </trkpt>
      <trkpt lat="42.94919" lon="0.69359">
        <ele>1531.52</ele>
        <time>2020-05-20T09:55:12Z</time>
      </trkpt>
      <trkpt lat="42.94927" lon="0.69356">
        <ele>1532.48</ele>
        <time>2020-05-20T09:55:39Z</time>
      </trkpt>
      <trkpt lat="42.94936" lon="0.69358">
        <ele>1532.96</ele>
        <time>2020-05-20T09:55:54Z</time>
      </trkpt>
      <trkpt lat="42.94945" lon="0.69354">
        <ele>1533.92</ele>
        <time>2020-05-20T09:56:10Z</time>
      </trkpt>
      <trkpt lat="42.94954" lon="0.69354">
        <ele>1537.29</ele>
        <time>2020-05-20T09:56:29Z</time>
      </trkpt>
      <trkpt lat="42.9496" lon="0.69356">
        <ele>1540.17</ele>
        <time>2020-05-20T09:56:49Z</time>
      </trkpt>
      <trkpt lat="42.94966" lon="0.69353">
        <ele>1540.17</ele>
        <time>2020-05-20T09:57:09Z</time>
      </trkpt>
      <trkpt lat="42.94978" lon="0.69351">
        <ele>1543.05</ele>
        <time>2020-05-20T09:57:28Z</time>
      </trkpt>
      <trkpt lat="42.94988" lon="0.69352">
        <ele>1544.01</ele>
        <time>2020-05-20T09:57:43Z</time>
      </trkpt>
      <trkpt lat="42.94999" lon="0.6935">
        <ele>1547.86</ele>
        <time>2020-05-20T09:58:05Z</time>
      </trkpt>
      <trkpt lat="42.95005" lon="0.69347">
        <ele>1549.78</ele>
        <time>2020-05-20T09:58:28Z</time>
      </trkpt>
      <trkpt lat="42.95014" lon="0.69343">
        <ele>1552.67</ele>
        <time>2020-05-20T09:58:49Z</time>
      </trkpt>
      <trkpt lat="42.95021" lon="0.69337">
        <ele>1554.11</ele>
        <time>2020-05-20T09:59:02Z</time>
      </trkpt>
      <trkpt lat="42.95029" lon="0.69326">
        <ele>1555.07</ele>
        <time>2020-05-20T09:59:14Z</time>
      </trkpt>
      <trkpt lat="42.95038" lon="0.69317">
        <ele>1557.47</ele>
        <time>2020-05-20T09:59:30Z</time>
      </trkpt>
      <trkpt lat="42.95039" lon="0.69303">
        <ele>1559.88</ele>
        <time>2020-05-20T09:59:54Z</time>
      </trkpt>
      <trkpt lat="42.95039" lon="0.69289">
        <ele>1564.2</ele>
        <time>2020-05-20T10:00:27Z</time>
      </trkpt>
      <trkpt lat="42.95042" lon="0.69277">
        <ele>1568.53</ele>
        <time>2020-05-20T10:00:48Z</time>
      </trkpt>
      <trkpt lat="42.95043" lon="0.69264">
        <ele>1570.45</ele>
        <time>2020-05-20T10:01:06Z</time>
      </trkpt>
      <trkpt lat="42.95041" lon="0.69261">
        <ele>1571.41</ele>
        <time>2020-05-20T10:01:53Z</time>
      </trkpt>
      <trkpt lat="42.95045" lon="0.69266">
        <ele>1570.93</ele>
        <time>2020-05-20T10:03:39Z</time>
      </trkpt>
      <trkpt lat="42.95051" lon="0.69276">
        <ele>1573.33</ele>
        <time>2020-05-20T10:03:53Z</time>
      </trkpt>
      <trkpt lat="42.95055" lon="0.69286">
        <ele>1576.7</ele>
        <time>2020-05-20T10:04:09Z</time>
      </trkpt>
      <trkpt lat="42.9506" lon="0.69294">
        <ele>1579.58</ele>
        <time>2020-05-20T10:04:29Z</time>
      </trkpt>
      <trkpt lat="42.95065" lon="0.69297">
        <ele>1581.99</ele>
        <time>2020-05-20T10:04:47Z</time>
      </trkpt>
      <trkpt lat="42.95073" lon="0.693">
        <ele>1585.83</ele>
        <time>2020-05-20T10:05:12Z</time>
      </trkpt>
      <trkpt lat="42.95079" lon="0.69302">
        <ele>1587.75</ele>
        <time>2020-05-20T10:05:30Z</time>
      </trkpt>
      <trkpt lat="42.9509" lon="0.69306">
        <ele>1592.08</ele>
        <time>2020-05-20T10:06:00Z</time>
      </trkpt>
      <trkpt lat="42.95101" lon="0.69307">
        <ele>1595.93</ele>
        <time>2020-05-20T10:06:30Z</time>
      </trkpt>
      <trkpt lat="42.95109" lon="0.69308">
        <ele>1598.81</ele>
        <time>2020-05-20T10:07:02Z</time>
      </trkpt>
      <trkpt lat="42.95115" lon="0.69306">
        <ele>1602.66</ele>
        <time>2020-05-20T10:07:25Z</time>
      </trkpt>
      <trkpt lat="42.95124" lon="0.69302">
        <ele>1606.02</ele>
        <time>2020-05-20T10:07:48Z</time>
      </trkpt>
      <trkpt lat="42.95129" lon="0.69306">
        <ele>1609.86</ele>
        <time>2020-05-20T10:08:15Z</time>
      </trkpt>
      <trkpt lat="42.95123" lon="0.69315">
        <ele>1611.31</ele>
        <time>2020-05-20T10:08:28Z</time>
      </trkpt>
      <trkpt lat="42.95121" lon="0.69326">
        <ele>1613.23</ele>
        <time>2020-05-20T10:08:43Z</time>
      </trkpt>
      <trkpt lat="42.95118" lon="0.69339">
        <ele>1615.15</ele>
        <time>2020-05-20T10:09:00Z</time>
      </trkpt>
      <trkpt lat="42.95114" lon="0.6935">
        <ele>1617.07</ele>
        <time>2020-05-20T10:09:15Z</time>
      </trkpt>
      <trkpt lat="42.95109" lon="0.69361">
        <ele>1617.07</ele>
        <time>2020-05-20T10:09:26Z</time>
      </trkpt>
      <trkpt lat="42.95107" lon="0.69374">
        <ele>1618.04</ele>
        <time>2020-05-20T10:09:38Z</time>
      </trkpt>
      <trkpt lat="42.95103" lon="0.69386">
        <ele>1619</ele>
        <time>2020-05-20T10:09:51Z</time>
      </trkpt>
      <trkpt lat="42.95103" lon="0.69397">
        <ele>1621.4</ele>
        <time>2020-05-20T10:10:06Z</time>
      </trkpt>
      <trkpt lat="42.951" lon="0.69408">
        <ele>1624.77</ele>
        <time>2020-05-20T10:10:25Z</time>
      </trkpt>
      <trkpt lat="42.95099" lon="0.69423">
        <ele>1627.65</ele>
        <time>2020-05-20T10:10:45Z</time>
      </trkpt>
      <trkpt lat="42.95097" lon="0.69436">
        <ele>1630.53</ele>
        <time>2020-05-20T10:11:08Z</time>
      </trkpt>
      <trkpt lat="42.95093" lon="0.69444">
        <ele>1632.46</ele>
        <time>2020-05-20T10:11:24Z</time>
      </trkpt>
      <trkpt lat="42.95088" lon="0.69454">
        <ele>1635.34</ele>
        <time>2020-05-20T10:11:48Z</time>
      </trkpt>
      <trkpt lat="42.95083" lon="0.69463">
        <ele>1638.22</ele>
        <time>2020-05-20T10:12:09Z</time>
      </trkpt>
      <trkpt lat="42.95077" lon="0.69472">
        <ele>1640.63</ele>
        <time>2020-05-20T10:12:30Z</time>
      </trkpt>
      <trkpt lat="42.95072" lon="0.69482">
        <ele>1643.99</ele>
        <time>2020-05-20T10:12:53Z</time>
      </trkpt>
      <trkpt lat="42.95066" lon="0.69494">
        <ele>1645.91</ele>
        <time>2020-05-20T10:13:17Z</time>
      </trkpt>
      <trkpt lat="42.95059" lon="0.69504">
        <ele>1648.8</ele>
        <time>2020-05-20T10:14:16Z</time>
      </trkpt>
      <trkpt lat="42.95054" lon="0.69514">
        <ele>1651.2</ele>
        <time>2020-05-20T10:14:32Z</time>
      </trkpt>
      <trkpt lat="42.95048" lon="0.69522">
        <ele>1653.6</ele>
        <time>2020-05-20T10:14:49Z</time>
      </trkpt>
      <trkpt lat="42.95044" lon="0.6953">
        <ele>1656.97</ele>
        <time>2020-05-20T10:15:07Z</time>
      </trkpt>
      <trkpt lat="42.95036" lon="0.69537">
        <ele>1659.85</ele>
        <time>2020-05-20T10:15:29Z</time>
      </trkpt>
      <trkpt lat="42.95029" lon="0.69544">
        <ele>1663.22</ele>
        <time>2020-05-20T10:15:48Z</time>
      </trkpt>
      <trkpt lat="42.95025" lon="0.69553">
        <ele>1667.54</ele>
        <time>2020-05-20T10:16:09Z</time>
      </trkpt>
      <trkpt lat="42.9502" lon="0.69562">
        <ele>1671.39</ele>
        <time>2020-05-20T10:16:36Z</time>
      </trkpt>
      <trkpt lat="42.95014" lon="0.69572">
        <ele>1675.72</ele>
        <time>2020-05-20T10:17:01Z</time>
      </trkpt>
      <trkpt lat="42.9501" lon="0.69585">
        <ele>1680.52</ele>
        <time>2020-05-20T10:17:32Z</time>
      </trkpt>
      <trkpt lat="42.95009" lon="0.69595">
        <ele>1685.33</ele>
        <time>2020-05-20T10:17:59Z</time>
      </trkpt>
      <trkpt lat="42.95006" lon="0.69606">
        <ele>1688.21</ele>
        <time>2020-05-20T10:18:23Z</time>
      </trkpt>
      <trkpt lat="42.95003" lon="0.69616">
        <ele>1692.06</ele>
        <time>2020-05-20T10:18:47Z</time>
      </trkpt>
      <trkpt lat="42.95002" lon="0.69627">
        <ele>1694.94</ele>
        <time>2020-05-20T10:19:09Z</time>
      </trkpt>
      <trkpt lat="42.94997" lon="0.69636">
        <ele>1699.27</ele>
        <time>2020-05-20T10:19:35Z</time>
      </trkpt>
      <trkpt lat="42.94988" lon="0.69645">
        <ele>1703.59</ele>
        <time>2020-05-20T10:20:04Z</time>
      </trkpt>
      <trkpt lat="42.94982" lon="0.69652">
        <ele>1706.96</ele>
        <time>2020-05-20T10:20:28Z</time>
      </trkpt>
      <trkpt lat="42.94973" lon="0.69655">
        <ele>1710.32</ele>
        <time>2020-05-20T10:20:46Z</time>
      </trkpt>
      <trkpt lat="42.94965" lon="0.69661">
        <ele>1712.73</ele>
        <time>2020-05-20T10:21:00Z</time>
      </trkpt>
      <trkpt lat="42.94961" lon="0.6967">
        <ele>1715.13</ele>
        <time>2020-05-20T10:21:12Z</time>
      </trkpt>
      <trkpt lat="42.94955" lon="0.69672">
        <ele>1718.01</ele>
        <time>2020-05-20T10:21:30Z</time>
      </trkpt>
      <trkpt lat="42.94948" lon="0.69685">
        <ele>1720.42</ele>
        <time>2020-05-20T10:21:51Z</time>
      </trkpt>
      <trkpt lat="42.9494" lon="0.69695">
        <ele>1722.82</ele>
        <time>2020-05-20T10:22:09Z</time>
      </trkpt>
      <trkpt lat="42.94933" lon="0.69702">
        <ele>1724.26</ele>
        <time>2020-05-20T10:22:23Z</time>
      </trkpt>
      <trkpt lat="42.94926" lon="0.69711">
        <ele>1725.7</ele>
        <time>2020-05-20T10:22:36Z</time>
      </trkpt>
      <trkpt lat="42.94921" lon="0.6972">
        <ele>1725.22</ele>
        <time>2020-05-20T10:22:53Z</time>
      </trkpt>
      <trkpt lat="42.94918" lon="0.69716">
        <ele>1724.74</ele>
        <time>2020-05-20T10:23:54Z</time>
      </trkpt>
      <trkpt lat="42.94918" lon="0.69705">
        <ele>1725.7</ele>
        <time>2020-05-20T10:24:05Z</time>
      </trkpt>
      <trkpt lat="42.94919" lon="0.69693">
        <ele>1726.67</ele>
        <time>2020-05-20T10:24:16Z</time>
      </trkpt>
      <trkpt lat="42.94914" lon="0.6969">
        <ele>1729.55</ele>
        <time>2020-05-20T10:24:32Z</time>
      </trkpt>
      <trkpt lat="42.94908" lon="0.69688">
        <ele>1733.39</ele>
        <time>2020-05-20T10:24:49Z</time>
      </trkpt>
      <trkpt lat="42.94902" lon="0.69684">
        <ele>1736.76</ele>
        <time>2020-05-20T10:25:07Z</time>
      </trkpt>
      <trkpt lat="42.94898" lon="0.69674">
        <ele>1739.64</ele>
        <time>2020-05-20T10:25:32Z</time>
      </trkpt>
      <trkpt lat="42.94891" lon="0.69669">
        <ele>1742.05</ele>
        <time>2020-05-20T10:25:48Z</time>
      </trkpt>
      <trkpt lat="42.94882" lon="0.69666">
        <ele>1743.49</ele>
        <time>2020-05-20T10:26:03Z</time>
      </trkpt>
      <trkpt lat="42.94879" lon="0.69655">
        <ele>1746.85</ele>
        <time>2020-05-20T10:26:23Z</time>
      </trkpt>
      <trkpt lat="42.94873" lon="0.69645">
        <ele>1749.26</ele>
        <time>2020-05-20T10:26:41Z</time>
      </trkpt>
      <trkpt lat="42.94869" lon="0.69635">
        <ele>1752.14</ele>
        <time>2020-05-20T10:27:03Z</time>
      </trkpt>
      <trkpt lat="42.94864" lon="0.69628">
        <ele>1755.99</ele>
        <time>2020-05-20T10:27:19Z</time>
      </trkpt>
      <trkpt lat="42.94858" lon="0.69626">
        <ele>1757.91</ele>
        <time>2020-05-20T10:27:35Z</time>
      </trkpt>
      <trkpt lat="42.94859" lon="0.69625">
        <ele>1758.87</ele>
        <time>2020-05-20T10:33:21Z</time>
      </trkpt>
      <trkpt lat="42.94853" lon="0.69627">
        <ele>1759.35</ele>
        <time>2020-05-20T10:35:22Z</time>
      </trkpt>
      <trkpt lat="42.94863" lon="0.69629">
        <ele>1756.47</ele>
        <time>2020-05-20T10:38:09Z</time>
      </trkpt>
      <trkpt lat="42.94871" lon="0.69634">
        <ele>1754.06</ele>
        <time>2020-05-20T10:38:22Z</time>
      </trkpt>
      <trkpt lat="42.94876" lon="0.69643">
        <ele>1751.66</ele>
        <time>2020-05-20T10:38:37Z</time>
      </trkpt>
      <trkpt lat="42.94877" lon="0.69653">
        <ele>1748.78</ele>
        <time>2020-05-20T10:38:51Z</time>
      </trkpt>
      <trkpt lat="42.94879" lon="0.69665">
        <ele>1745.89</ele>
        <time>2020-05-20T10:39:04Z</time>
      </trkpt>
      <trkpt lat="42.94887" lon="0.6967">
        <ele>1743.97</ele>
        <time>2020-05-20T10:39:16Z</time>
      </trkpt>
      <trkpt lat="42.94896" lon="0.69674">
        <ele>1741.57</ele>
        <time>2020-05-20T10:39:28Z</time>
      </trkpt>
      <trkpt lat="42.94901" lon="0.69683">
        <ele>1738.68</ele>
        <time>2020-05-20T10:39:48Z</time>
      </trkpt>
      <trkpt lat="42.94904" lon="0.69692">
        <ele>1735.8</ele>
        <time>2020-05-20T10:40:03Z</time>
      </trkpt>
      <trkpt lat="42.94911" lon="0.69691">
        <ele>1732.91</ele>
        <time>2020-05-20T10:40:16Z</time>
      </trkpt>
      <trkpt lat="42.94917" lon="0.69689">
        <ele>1730.51</ele>
        <time>2020-05-20T10:40:35Z</time>
      </trkpt>
      <trkpt lat="42.94919" lon="0.69698">
        <ele>1728.11</ele>
        <time>2020-05-20T10:40:52Z</time>
      </trkpt>
      <trkpt lat="42.9492" lon="0.69711">
        <ele>1727.63</ele>
        <time>2020-05-20T10:41:02Z</time>
      </trkpt>
      <trkpt lat="42.94926" lon="0.6972">
        <ele>1728.11</ele>
        <time>2020-05-20T10:41:12Z</time>
      </trkpt>
      <trkpt lat="42.94934" lon="0.69724">
        <ele>1728.11</ele>
        <time>2020-05-20T10:41:22Z</time>
      </trkpt>
      <trkpt lat="42.94943" lon="0.69728">
        <ele>1728.59</ele>
        <time>2020-05-20T10:41:32Z</time>
      </trkpt>
      <trkpt lat="42.94952" lon="0.6973">
        <ele>1729.55</ele>
        <time>2020-05-20T10:41:43Z</time>
      </trkpt>
      <trkpt lat="42.9496" lon="0.69734">
        <ele>1730.99</ele>
        <time>2020-05-20T10:41:57Z</time>
      </trkpt>
      <trkpt lat="42.94969" lon="0.69738">
        <ele>1732.91</ele>
        <time>2020-05-20T10:42:10Z</time>
      </trkpt>
      <trkpt lat="42.94978" lon="0.69741">
        <ele>1734.84</ele>
        <time>2020-05-20T10:42:28Z</time>
      </trkpt>
      <trkpt lat="42.94988" lon="0.69746">
        <ele>1736.28</ele>
        <time>2020-05-20T10:42:42Z</time>
      </trkpt>
      <trkpt lat="42.94995" lon="0.69752">
        <ele>1738.68</ele>
        <time>2020-05-20T10:42:58Z</time>
      </trkpt>
      <trkpt lat="42.95003" lon="0.69757">
        <ele>1739.64</ele>
        <time>2020-05-20T10:43:12Z</time>
      </trkpt>
      <trkpt lat="42.95012" lon="0.69762">
        <ele>1741.08</ele>
        <time>2020-05-20T10:43:26Z</time>
      </trkpt>
      <trkpt lat="42.95018" lon="0.6977">
        <ele>1742.53</ele>
        <time>2020-05-20T10:43:40Z</time>
      </trkpt>
      <trkpt lat="42.95024" lon="0.69775">
        <ele>1745.41</ele>
        <time>2020-05-20T10:43:59Z</time>
      </trkpt>
      <trkpt lat="42.95032" lon="0.69784">
        <ele>1748.78</ele>
        <time>2020-05-20T10:44:22Z</time>
      </trkpt>
      <trkpt lat="42.95039" lon="0.69791">
        <ele>1751.66</ele>
        <time>2020-05-20T10:44:42Z</time>
      </trkpt>
      <trkpt lat="42.95046" lon="0.69796">
        <ele>1754.06</ele>
        <time>2020-05-20T10:44:59Z</time>
      </trkpt>
      <trkpt lat="42.95051" lon="0.69802">
        <ele>1755.99</ele>
        <time>2020-05-20T10:45:13Z</time>
      </trkpt>
      <trkpt lat="42.95055" lon="0.69809">
        <ele>1758.39</ele>
        <time>2020-05-20T10:45:31Z</time>
      </trkpt>
      <trkpt lat="42.95062" lon="0.69815">
        <ele>1759.35</ele>
        <time>2020-05-20T10:46:23Z</time>
      </trkpt>
      <trkpt lat="42.95067" lon="0.69825">
        <ele>1761.27</ele>
        <time>2020-05-20T10:46:39Z</time>
      </trkpt>
      <trkpt lat="42.95067" lon="0.69833">
        <ele>1763.2</ele>
        <time>2020-05-20T10:46:55Z</time>
      </trkpt>
      <trkpt lat="42.9506" lon="0.69832">
        <ele>1765.6</ele>
        <time>2020-05-20T10:47:12Z</time>
      </trkpt>
      <trkpt lat="42.95052" lon="0.69835">
        <ele>1768.96</ele>
        <time>2020-05-20T10:47:35Z</time>
      </trkpt>
      <trkpt lat="42.95048" lon="0.69838">
        <ele>1773.77</ele>
        <time>2020-05-20T10:48:01Z</time>
      </trkpt>
      <trkpt lat="42.95042" lon="0.69847">
        <ele>1778.58</ele>
        <time>2020-05-20T10:48:36Z</time>
      </trkpt>
      <trkpt lat="42.95034" lon="0.69851">
        <ele>1780.5</ele>
        <time>2020-05-20T10:49:02Z</time>
      </trkpt>
      <trkpt lat="42.95026" lon="0.69856">
        <ele>1784.34</ele>
        <time>2020-05-20T10:49:33Z</time>
      </trkpt>
      <trkpt lat="42.95017" lon="0.6986">
        <ele>1784.82</ele>
        <time>2020-05-20T10:50:29Z</time>
      </trkpt>
      <trkpt lat="42.95023" lon="0.69867">
        <ele>1785.79</ele>
        <time>2020-05-20T10:50:48Z</time>
      </trkpt>
      <trkpt lat="42.95029" lon="0.69877">
        <ele>1785.31</ele>
        <time>2020-05-20T10:51:02Z</time>
      </trkpt>
      <trkpt lat="42.95034" lon="0.69881">
        <ele>1781.46</ele>
        <time>2020-05-20T10:51:25Z</time>
      </trkpt>
      <trkpt lat="42.95037" lon="0.69891">
        <ele>1780.98</ele>
        <time>2020-05-20T10:51:42Z</time>
      </trkpt>
      <trkpt lat="42.95038" lon="0.69904">
        <ele>1783.38</ele>
        <time>2020-05-20T10:52:00Z</time>
      </trkpt>
      <trkpt lat="42.95039" lon="0.69906">
        <ele>1783.86</ele>
        <time>2020-05-20T10:52:36Z</time>
      </trkpt>
      <trkpt lat="42.95043" lon="0.69911">
        <ele>1781.46</ele>
        <time>2020-05-20T10:54:03Z</time>
      </trkpt>
      <trkpt lat="42.95044" lon="0.69922">
        <ele>1780.98</ele>
        <time>2020-05-20T10:54:40Z</time>
      </trkpt>
      <trkpt lat="42.95053" lon="0.69919">
        <ele>1779.54</ele>
        <time>2020-05-20T10:54:57Z</time>
      </trkpt>
      <trkpt lat="42.95064" lon="0.69922">
        <ele>1778.58</ele>
        <time>2020-05-20T10:55:52Z</time>
      </trkpt>
      <trkpt lat="42.95066" lon="0.69923">
        <ele>1776.65</ele>
        <time>2020-05-20T10:56:09Z</time>
      </trkpt>
      <trkpt lat="42.95074" lon="0.69927">
        <ele>1776.17</ele>
        <time>2020-05-20T10:56:20Z</time>
      </trkpt>
      <trkpt lat="42.95081" lon="0.69933">
        <ele>1776.17</ele>
        <time>2020-05-20T10:56:37Z</time>
      </trkpt>
      <trkpt lat="42.95084" lon="0.69931">
        <ele>1773.29</ele>
        <time>2020-05-20T11:49:26Z</time>
      </trkpt>
      <trkpt lat="42.95082" lon="0.6994">
        <ele>1775.21</ele>
        <time>2020-05-20T11:54:26Z</time>
      </trkpt>
      <trkpt lat="42.9508" lon="0.69938">
        <ele>1771.85</ele>
        <time>2020-05-20T11:55:50Z</time>
      </trkpt>
      <trkpt lat="42.95073" lon="0.69944">
        <ele>1768.96</ele>
        <time>2020-05-20T11:56:05Z</time>
      </trkpt>
      <trkpt lat="42.95066" lon="0.6995">
        <ele>1765.6</ele>
        <time>2020-05-20T11:56:20Z</time>
      </trkpt>
      <trkpt lat="42.95058" lon="0.69956">
        <ele>1765.12</ele>
        <time>2020-05-20T11:56:30Z</time>
      </trkpt>
      <trkpt lat="42.95052" lon="0.69961">
        <ele>1765.6</ele>
        <time>2020-05-20T11:57:18Z</time>
      </trkpt>
      <trkpt lat="42.95059" lon="0.69958">
        <ele>1763.68</ele>
        <time>2020-05-20T11:57:38Z</time>
      </trkpt>
      <trkpt lat="42.95063" lon="0.69966">
        <ele>1759.35</ele>
        <time>2020-05-20T11:57:55Z</time>
      </trkpt>
      <trkpt lat="42.95071" lon="0.69969">
        <ele>1756.95</ele>
        <time>2020-05-20T11:58:30Z</time>
      </trkpt>
      <trkpt lat="42.95076" lon="0.69978">
        <ele>1755.02</ele>
        <time>2020-05-20T11:59:04Z</time>
      </trkpt>
      <trkpt lat="42.95079" lon="0.69986">
        <ele>1751.18</ele>
        <time>2020-05-20T11:59:25Z</time>
      </trkpt>
      <trkpt lat="42.95082" lon="0.69994">
        <ele>1749.26</ele>
        <time>2020-05-20T11:59:43Z</time>
      </trkpt>
      <trkpt lat="42.95086" lon="0.70001">
        <ele>1745.89</ele>
        <time>2020-05-20T12:00:03Z</time>
      </trkpt>
      <trkpt lat="42.95086" lon="0.70007">
        <ele>1744.93</ele>
        <time>2020-05-20T12:01:18Z</time>
      </trkpt>
      <trkpt lat="42.95083" lon="0.70016">
        <ele>1743.01</ele>
        <time>2020-05-20T12:01:29Z</time>
      </trkpt>
      <trkpt lat="42.95085" lon="0.70028">
        <ele>1745.41</ele>
        <time>2020-05-20T12:01:42Z</time>
      </trkpt>
      <trkpt lat="42.9508" lon="0.70036">
        <ele>1747.81</ele>
        <time>2020-05-20T12:02:02Z</time>
      </trkpt>
      <trkpt lat="42.95077" lon="0.70048">
        <ele>1749.26</ele>
        <time>2020-05-20T12:02:21Z</time>
      </trkpt>
      <trkpt lat="42.95072" lon="0.70057">
        <ele>1751.66</ele>
        <time>2020-05-20T12:02:43Z</time>
      </trkpt>
      <trkpt lat="42.95068" lon="0.70066">
        <ele>1751.18</ele>
        <time>2020-05-20T12:02:57Z</time>
      </trkpt>
      <trkpt lat="42.95062" lon="0.70076">
        <ele>1754.06</ele>
        <time>2020-05-20T12:03:20Z</time>
      </trkpt>
      <trkpt lat="42.95058" lon="0.70081">
        <ele>1756.95</ele>
        <time>2020-05-20T12:03:51Z</time>
      </trkpt>
      <trkpt lat="42.95054" lon="0.7009">
        <ele>1757.91</ele>
        <time>2020-05-20T12:05:07Z</time>
      </trkpt>
      <trkpt lat="42.95055" lon="0.70103">
        <ele>1760.31</ele>
        <time>2020-05-20T12:05:24Z</time>
      </trkpt>
      <trkpt lat="42.95054" lon="0.70114">
        <ele>1760.31</ele>
        <time>2020-05-20T12:05:38Z</time>
      </trkpt>
      <trkpt lat="42.95051" lon="0.70122">
        <ele>1764.16</ele>
        <time>2020-05-20T12:05:57Z</time>
      </trkpt>
      <trkpt lat="42.95053" lon="0.7013">
        <ele>1765.12</ele>
        <time>2020-05-20T12:07:28Z</time>
      </trkpt>
      <trkpt lat="42.95053" lon="0.70136">
        <ele>1764.64</ele>
        <time>2020-05-20T12:09:36Z</time>
      </trkpt>
      <trkpt lat="42.95051" lon="0.70148">
        <ele>1764.64</ele>
        <time>2020-05-20T12:09:52Z</time>
      </trkpt>
      <trkpt lat="42.95055" lon="0.70158">
        <ele>1760.79</ele>
        <time>2020-05-20T12:10:10Z</time>
      </trkpt>
      <trkpt lat="42.95053" lon="0.70174">
        <ele>1759.35</ele>
        <time>2020-05-20T12:10:28Z</time>
      </trkpt>
      <trkpt lat="42.95051" lon="0.70185">
        <ele>1757.91</ele>
        <time>2020-05-20T12:10:40Z</time>
      </trkpt>
      <trkpt lat="42.95049" lon="0.70199">
        <ele>1758.39</ele>
        <time>2020-05-20T12:10:51Z</time>
      </trkpt>
      <trkpt lat="42.95046" lon="0.7021">
        <ele>1759.35</ele>
        <time>2020-05-20T12:11:02Z</time>
      </trkpt>
      <trkpt lat="42.95045" lon="0.70223">
        <ele>1759.35</ele>
        <time>2020-05-20T12:11:15Z</time>
      </trkpt>
      <trkpt lat="42.95043" lon="0.70232">
        <ele>1759.35</ele>
        <time>2020-05-20T12:11:31Z</time>
      </trkpt>
      <trkpt lat="42.95049" lon="0.70235">
        <ele>1758.39</ele>
        <time>2020-05-20T12:13:03Z</time>
      </trkpt>
      <trkpt lat="42.95048" lon="0.70247">
        <ele>1754.06</ele>
        <time>2020-05-20T12:13:33Z</time>
      </trkpt>
      <trkpt lat="42.95054" lon="0.70247">
        <ele>1750.22</ele>
        <time>2020-05-20T12:13:56Z</time>
      </trkpt>
      <trkpt lat="42.95058" lon="0.70254">
        <ele>1749.26</ele>
        <time>2020-05-20T12:14:14Z</time>
      </trkpt>
      <trkpt lat="42.9506" lon="0.70268">
        <ele>1748.29</ele>
        <time>2020-05-20T12:14:35Z</time>
      </trkpt>
      <trkpt lat="42.95064" lon="0.70283">
        <ele>1745.41</ele>
        <time>2020-05-20T12:15:00Z</time>
      </trkpt>
      <trkpt lat="42.95072" lon="0.70287">
        <ele>1743.49</ele>
        <time>2020-05-20T12:15:42Z</time>
      </trkpt>
      <trkpt lat="42.95069" lon="0.70297">
        <ele>1742.53</ele>
        <time>2020-05-20T12:15:59Z</time>
      </trkpt>
      <trkpt lat="42.95068" lon="0.7031">
        <ele>1742.53</ele>
        <time>2020-05-20T12:16:26Z</time>
      </trkpt>
      <trkpt lat="42.95068" lon="0.70325">
        <ele>1742.05</ele>
        <time>2020-05-20T12:16:56Z</time>
      </trkpt>
      <trkpt lat="42.95074" lon="0.70329">
        <ele>1740.6</ele>
        <time>2020-05-20T12:17:15Z</time>
      </trkpt>
      <trkpt lat="42.95082" lon="0.70335">
        <ele>1740.12</ele>
        <time>2020-05-20T12:17:35Z</time>
      </trkpt>
      <trkpt lat="42.95085" lon="0.70351">
        <ele>1740.12</ele>
        <time>2020-05-20T12:18:01Z</time>
      </trkpt>
      <trkpt lat="42.95082" lon="0.70362">
        <ele>1740.6</ele>
        <time>2020-05-20T12:18:20Z</time>
      </trkpt>
      <trkpt lat="42.95087" lon="0.70378">
        <ele>1739.16</ele>
        <time>2020-05-20T12:18:44Z</time>
      </trkpt>
      <trkpt lat="42.95089" lon="0.70392">
        <ele>1737.24</ele>
        <time>2020-05-20T12:19:05Z</time>
      </trkpt>
      <trkpt lat="42.95091" lon="0.70408">
        <ele>1734.36</ele>
        <time>2020-05-20T12:19:33Z</time>
      </trkpt>
      <trkpt lat="42.95095" lon="0.7042">
        <ele>1731.47</ele>
        <time>2020-05-20T12:19:55Z</time>
      </trkpt>
      <trkpt lat="42.95099" lon="0.70425">
        <ele>1728.11</ele>
        <time>2020-05-20T12:20:20Z</time>
      </trkpt>
      <trkpt lat="42.95105" lon="0.70429">
        <ele>1725.22</ele>
        <time>2020-05-20T12:20:49Z</time>
      </trkpt>
      <trkpt lat="42.95107" lon="0.70437">
        <ele>1723.3</ele>
        <time>2020-05-20T12:21:08Z</time>
      </trkpt>
      <trkpt lat="42.95113" lon="0.70454">
        <ele>1725.7</ele>
        <time>2020-05-20T12:21:26Z</time>
      </trkpt>
      <trkpt lat="42.95121" lon="0.70472">
        <ele>1727.15</ele>
        <time>2020-05-20T12:22:11Z</time>
      </trkpt>
      <trkpt lat="42.95128" lon="0.70483">
        <ele>1727.15</ele>
        <time>2020-05-20T12:22:29Z</time>
      </trkpt>
      <trkpt lat="42.95134" lon="0.70501">
        <ele>1725.7</ele>
        <time>2020-05-20T12:22:50Z</time>
      </trkpt>
      <trkpt lat="42.9514" lon="0.70514">
        <ele>1722.82</ele>
        <time>2020-05-20T12:23:13Z</time>
      </trkpt>
      <trkpt lat="42.95145" lon="0.70533">
        <ele>1717.53</ele>
        <time>2020-05-20T12:23:39Z</time>
      </trkpt>
      <trkpt lat="42.95139" lon="0.70546">
        <ele>1716.57</ele>
        <time>2020-05-20T12:24:00Z</time>
      </trkpt>
      <trkpt lat="42.95142" lon="0.70561">
        <ele>1716.09</ele>
        <time>2020-05-20T12:24:16Z</time>
      </trkpt>
      <trkpt lat="42.95139" lon="0.70576">
        <ele>1713.69</ele>
        <time>2020-05-20T12:24:34Z</time>
      </trkpt>
      <trkpt lat="42.95137" lon="0.70589">
        <ele>1709.84</ele>
        <time>2020-05-20T12:24:57Z</time>
      </trkpt>
      <trkpt lat="42.95134" lon="0.70603">
        <ele>1706.48</ele>
        <time>2020-05-20T12:25:17Z</time>
      </trkpt>
      <trkpt lat="42.95139" lon="0.70611">
        <ele>1702.63</ele>
        <time>2020-05-20T12:25:38Z</time>
      </trkpt>
      <trkpt lat="42.9514" lon="0.7062">
        <ele>1698.79</ele>
        <time>2020-05-20T12:25:59Z</time>
      </trkpt>
      <trkpt lat="42.95139" lon="0.70632">
        <ele>1694.94</ele>
        <time>2020-05-20T12:26:20Z</time>
      </trkpt>
      <trkpt lat="42.95148" lon="0.70631">
        <ele>1691.58</ele>
        <time>2020-05-20T12:26:40Z</time>
      </trkpt>
      <trkpt lat="42.95156" lon="0.70629">
        <ele>1687.25</ele>
        <time>2020-05-20T12:27:08Z</time>
      </trkpt>
      <trkpt lat="42.95163" lon="0.70633">
        <ele>1682.93</ele>
        <time>2020-05-20T12:27:29Z</time>
      </trkpt>
      <trkpt lat="42.95161" lon="0.70648">
        <ele>1679.56</ele>
        <time>2020-05-20T12:27:51Z</time>
      </trkpt>
      <trkpt lat="42.95153" lon="0.7066">
        <ele>1675.72</ele>
        <time>2020-05-20T12:28:17Z</time>
      </trkpt>
      <trkpt lat="42.95141" lon="0.70674">
        <ele>1672.35</ele>
        <time>2020-05-20T12:28:51Z</time>
      </trkpt>
      <trkpt lat="42.9514" lon="0.70682">
        <ele>1668.02</ele>
        <time>2020-05-20T12:29:14Z</time>
      </trkpt>
      <trkpt lat="42.95135" lon="0.70694">
        <ele>1665.62</ele>
        <time>2020-05-20T12:29:51Z</time>
      </trkpt>
      <trkpt lat="42.95134" lon="0.70707">
        <ele>1663.22</ele>
        <time>2020-05-20T12:30:34Z</time>
      </trkpt>
      <trkpt lat="42.95129" lon="0.70718">
        <ele>1659.85</ele>
        <time>2020-05-20T12:30:52Z</time>
      </trkpt>
      <trkpt lat="42.95122" lon="0.70733">
        <ele>1656.49</ele>
        <time>2020-05-20T12:31:21Z</time>
      </trkpt>
      <trkpt lat="42.95116" lon="0.70744">
        <ele>1652.16</ele>
        <time>2020-05-20T12:31:45Z</time>
      </trkpt>
      <trkpt lat="42.95109" lon="0.70763">
        <ele>1647.84</ele>
        <time>2020-05-20T12:32:17Z</time>
      </trkpt>
      <trkpt lat="42.95109" lon="0.70781">
        <ele>1643.99</ele>
        <time>2020-05-20T12:32:39Z</time>
      </trkpt>
      <trkpt lat="42.95102" lon="0.70801">
        <ele>1641.11</ele>
        <time>2020-05-20T12:33:02Z</time>
      </trkpt>
      <trkpt lat="42.95098" lon="0.70819">
        <ele>1638.22</ele>
        <time>2020-05-20T12:33:21Z</time>
      </trkpt>
      <trkpt lat="42.951" lon="0.70833">
        <ele>1637.74</ele>
        <time>2020-05-20T12:33:34Z</time>
      </trkpt>
      <trkpt lat="42.951" lon="0.70853">
        <ele>1634.38</ele>
        <time>2020-05-20T12:33:55Z</time>
      </trkpt>
      <trkpt lat="42.95096" lon="0.70877">
        <ele>1629.57</ele>
        <time>2020-05-20T12:34:24Z</time>
      </trkpt>
      <trkpt lat="42.95094" lon="0.70895">
        <ele>1624.28</ele>
        <time>2020-05-20T12:34:59Z</time>
      </trkpt>
      <trkpt lat="42.95091" lon="0.70904">
        <ele>1621.4</ele>
        <time>2020-05-20T12:35:18Z</time>
      </trkpt>
      <trkpt lat="42.95084" lon="0.70915">
        <ele>1625.25</ele>
        <time>2020-05-20T12:35:42Z</time>
      </trkpt>
      <trkpt lat="42.95076" lon="0.70929">
        <ele>1628.13</ele>
        <time>2020-05-20T12:36:06Z</time>
      </trkpt>
      <trkpt lat="42.95072" lon="0.70948">
        <ele>1628.13</ele>
        <time>2020-05-20T12:36:24Z</time>
      </trkpt>
      <trkpt lat="42.95066" lon="0.70969">
        <ele>1629.57</ele>
        <time>2020-05-20T12:36:47Z</time>
      </trkpt>
      <trkpt lat="42.9506" lon="0.70987">
        <ele>1625.25</ele>
        <time>2020-05-20T12:37:14Z</time>
      </trkpt>
      <trkpt lat="42.95054" lon="0.71001">
        <ele>1623.32</ele>
        <time>2020-05-20T12:37:33Z</time>
      </trkpt>
      <trkpt lat="42.95044" lon="0.71012">
        <ele>1624.28</ele>
        <time>2020-05-20T12:37:49Z</time>
      </trkpt>
      <trkpt lat="42.95043" lon="0.71029">
        <ele>1621.88</ele>
        <time>2020-05-20T12:38:09Z</time>
      </trkpt>
      <trkpt lat="42.95038" lon="0.71045">
        <ele>1622.36</ele>
        <time>2020-05-20T12:38:25Z</time>
      </trkpt>
      <trkpt lat="42.95038" lon="0.71061">
        <ele>1623.8</ele>
        <time>2020-05-20T12:38:40Z</time>
      </trkpt>
      <trkpt lat="42.95028" lon="0.71065">
        <ele>1623.8</ele>
        <time>2020-05-20T12:38:52Z</time>
      </trkpt>
      <trkpt lat="42.95026" lon="0.71091">
        <ele>1621.4</ele>
        <time>2020-05-20T12:39:15Z</time>
      </trkpt>
      <trkpt lat="42.95021" lon="0.71106">
        <ele>1616.59</ele>
        <time>2020-05-20T12:39:33Z</time>
      </trkpt>
      <trkpt lat="42.95013" lon="0.71109">
        <ele>1615.15</ele>
        <time>2020-05-20T12:39:48Z</time>
      </trkpt>
      <trkpt lat="42.95008" lon="0.71126">
        <ele>1613.23</ele>
        <time>2020-05-20T12:40:06Z</time>
      </trkpt>
      <trkpt lat="42.95002" lon="0.71144">
        <ele>1611.79</ele>
        <time>2020-05-20T12:40:28Z</time>
      </trkpt>
      <trkpt lat="42.94995" lon="0.7116">
        <ele>1611.31</ele>
        <time>2020-05-20T12:40:49Z</time>
      </trkpt>
      <trkpt lat="42.94992" lon="0.71193">
        <ele>1611.31</ele>
        <time>2020-05-20T12:41:06Z</time>
      </trkpt>
      <trkpt lat="42.94984" lon="0.71206">
        <ele>1610.83</ele>
        <time>2020-05-20T12:41:22Z</time>
      </trkpt>
      <trkpt lat="42.94976" lon="0.71226">
        <ele>1606.98</ele>
        <time>2020-05-20T12:41:43Z</time>
      </trkpt>
      <trkpt lat="42.94965" lon="0.71238">
        <ele>1608.9</ele>
        <time>2020-05-20T12:41:58Z</time>
      </trkpt>
      <trkpt lat="42.94954" lon="0.71255">
        <ele>1610.83</ele>
        <time>2020-05-20T12:42:13Z</time>
      </trkpt>
      <trkpt lat="42.94944" lon="0.71272">
        <ele>1608.9</ele>
        <time>2020-05-20T12:42:29Z</time>
      </trkpt>
      <trkpt lat="42.94936" lon="0.71287">
        <ele>1605.06</ele>
        <time>2020-05-20T12:42:46Z</time>
      </trkpt>
      <trkpt lat="42.94923" lon="0.71304">
        <ele>1602.17</ele>
        <time>2020-05-20T12:43:08Z</time>
      </trkpt>
      <trkpt lat="42.94917" lon="0.71315">
        <ele>1601.21</ele>
        <time>2020-05-20T12:43:18Z</time>
      </trkpt>
      <trkpt lat="42.94915" lon="0.71329">
        <ele>1599.77</ele>
        <time>2020-05-20T12:43:28Z</time>
      </trkpt>
      <trkpt lat="42.94914" lon="0.71337">
        <ele>1599.77</ele>
        <time>2020-05-20T12:43:41Z</time>
      </trkpt>
      <trkpt lat="42.94916" lon="0.71347">
        <ele>1598.81</ele>
        <time>2020-05-20T12:44:04Z</time>
      </trkpt>
      <trkpt lat="42.94915" lon="0.7135">
        <ele>1598.81</ele>
        <time>2020-05-20T12:44:27Z</time>
      </trkpt>
      <trkpt lat="42.94913" lon="0.71339">
        <ele>1597.85</ele>
        <time>2020-05-20T12:44:39Z</time>
      </trkpt>
      <trkpt lat="42.94905" lon="0.71331">
        <ele>1594.96</ele>
        <time>2020-05-20T12:45:03Z</time>
      </trkpt>
      <trkpt lat="42.94896" lon="0.71326">
        <ele>1593.04</ele>
        <time>2020-05-20T12:45:18Z</time>
      </trkpt>
      <trkpt lat="42.94886" lon="0.71323">
        <ele>1591.6</ele>
        <time>2020-05-20T12:45:31Z</time>
      </trkpt>
      <trkpt lat="42.94878" lon="0.71317">
        <ele>1588.72</ele>
        <time>2020-05-20T12:45:48Z</time>
      </trkpt>
      <trkpt lat="42.94871" lon="0.7131">
        <ele>1584.87</ele>
        <time>2020-05-20T12:46:02Z</time>
      </trkpt>
      <trkpt lat="42.94864" lon="0.71309">
        <ele>1580.54</ele>
        <time>2020-05-20T12:46:20Z</time>
      </trkpt>
      <trkpt lat="42.94857" lon="0.71308">
        <ele>1576.22</ele>
        <time>2020-05-20T12:46:35Z</time>
      </trkpt>
      <trkpt lat="42.94851" lon="0.713">
        <ele>1572.85</ele>
        <time>2020-05-20T12:46:51Z</time>
      </trkpt>
      <trkpt lat="42.94844" lon="0.71307">
        <ele>1569.97</ele>
        <time>2020-05-20T12:47:09Z</time>
      </trkpt>
      <trkpt lat="42.94837" lon="0.71313">
        <ele>1565.64</ele>
        <time>2020-05-20T12:47:25Z</time>
      </trkpt>
      <trkpt lat="42.9483" lon="0.7132">
        <ele>1562.76</ele>
        <time>2020-05-20T12:47:37Z</time>
      </trkpt>
      <trkpt lat="42.94821" lon="0.71319">
        <ele>1557.95</ele>
        <time>2020-05-20T12:47:49Z</time>
      </trkpt>
      <trkpt lat="42.94814" lon="0.71326">
        <ele>1554.59</ele>
        <time>2020-05-20T12:48:03Z</time>
      </trkpt>
      <trkpt lat="42.94807" lon="0.71321">
        <ele>1550.74</ele>
        <time>2020-05-20T12:48:18Z</time>
      </trkpt>
      <trkpt lat="42.948" lon="0.71328">
        <ele>1547.86</ele>
        <time>2020-05-20T12:48:32Z</time>
      </trkpt>
      <trkpt lat="42.94793" lon="0.71335">
        <ele>1544.5</ele>
        <time>2020-05-20T12:48:43Z</time>
      </trkpt>
      <trkpt lat="42.94786" lon="0.71338">
        <ele>1541.13</ele>
        <time>2020-05-20T12:48:58Z</time>
      </trkpt>
      <trkpt lat="42.94778" lon="0.71342">
        <ele>1537.77</ele>
        <time>2020-05-20T12:49:12Z</time>
      </trkpt>
      <trkpt lat="42.94769" lon="0.71343">
        <ele>1534.4</ele>
        <time>2020-05-20T12:49:24Z</time>
      </trkpt>
      <trkpt lat="42.9476" lon="0.7135">
        <ele>1532.96</ele>
        <time>2020-05-20T12:49:36Z</time>
      </trkpt>
      <trkpt lat="42.94753" lon="0.71356">
        <ele>1529.59</ele>
        <time>2020-05-20T12:49:46Z</time>
      </trkpt>
      <trkpt lat="42.94746" lon="0.71363">
        <ele>1528.15</ele>
        <time>2020-05-20T12:49:56Z</time>
      </trkpt>
      <trkpt lat="42.9474" lon="0.71373">
        <ele>1526.71</ele>
        <time>2020-05-20T12:50:07Z</time>
      </trkpt>
      <trkpt lat="42.94735" lon="0.71381">
        <ele>1525.27</ele>
        <time>2020-05-20T12:50:16Z</time>
      </trkpt>
      <trkpt lat="42.94731" lon="0.71392">
        <ele>1523.83</ele>
        <time>2020-05-20T12:50:25Z</time>
      </trkpt>
      <trkpt lat="42.94724" lon="0.71401">
        <ele>1523.83</ele>
        <time>2020-05-20T12:50:38Z</time>
      </trkpt>
      <trkpt lat="42.9472" lon="0.71413">
        <ele>1524.79</ele>
        <time>2020-05-20T12:50:56Z</time>
      </trkpt>
      <trkpt lat="42.94715" lon="0.71425">
        <ele>1526.71</ele>
        <time>2020-05-20T12:51:11Z</time>
      </trkpt>
      <trkpt lat="42.94709" lon="0.71435">
        <ele>1525.75</ele>
        <time>2020-05-20T12:51:26Z</time>
      </trkpt>
      <trkpt lat="42.94701" lon="0.71443">
        <ele>1523.83</ele>
        <time>2020-05-20T12:51:38Z</time>
      </trkpt>
      <trkpt lat="42.94696" lon="0.71457">
        <ele>1524.31</ele>
        <time>2020-05-20T12:51:49Z</time>
      </trkpt>
      <trkpt lat="42.94694" lon="0.71473">
        <ele>1522.39</ele>
        <time>2020-05-20T12:52:00Z</time>
      </trkpt>
      <trkpt lat="42.94689" lon="0.71484">
        <ele>1521.9</ele>
        <time>2020-05-20T12:52:11Z</time>
      </trkpt>
      <trkpt lat="42.94682" lon="0.71493">
        <ele>1519.5</ele>
        <time>2020-05-20T12:52:24Z</time>
      </trkpt>
      <trkpt lat="42.94674" lon="0.71511">
        <ele>1519.98</ele>
        <time>2020-05-20T12:53:25Z</time>
      </trkpt>
      <trkpt lat="42.94673" lon="0.71521">
        <ele>1518.54</ele>
        <time>2020-05-20T12:53:36Z</time>
      </trkpt>
      <trkpt lat="42.94668" lon="0.71532">
        <ele>1518.06</ele>
        <time>2020-05-20T12:53:47Z</time>
      </trkpt>
      <trkpt lat="42.94663" lon="0.71544">
        <ele>1518.06</ele>
        <time>2020-05-20T12:53:58Z</time>
      </trkpt>
      <trkpt lat="42.94656" lon="0.71555">
        <ele>1517.58</ele>
        <time>2020-05-20T12:54:32Z</time>
      </trkpt>
      <trkpt lat="42.94652" lon="0.71566">
        <ele>1515.18</ele>
        <time>2020-05-20T12:54:47Z</time>
      </trkpt>
      <trkpt lat="42.94645" lon="0.71575">
        <ele>1514.69</ele>
        <time>2020-05-20T12:54:57Z</time>
      </trkpt>
      <trkpt lat="42.9464" lon="0.71588">
        <ele>1517.1</ele>
        <time>2020-05-20T12:55:09Z</time>
      </trkpt>
      <trkpt lat="42.94637" lon="0.71601">
        <ele>1512.77</ele>
        <time>2020-05-20T12:55:23Z</time>
      </trkpt>
      <trkpt lat="42.94634" lon="0.71619">
        <ele>1509.41</ele>
        <time>2020-05-20T12:55:42Z</time>
      </trkpt>
      <trkpt lat="42.94632" lon="0.7164">
        <ele>1507.97</ele>
        <time>2020-05-20T12:56:02Z</time>
      </trkpt>
      <trkpt lat="42.9463" lon="0.71669">
        <ele>1507</ele>
        <time>2020-05-20T12:56:22Z</time>
      </trkpt>
      <trkpt lat="42.94624" lon="0.71684">
        <ele>1507.97</ele>
        <time>2020-05-20T12:56:36Z</time>
      </trkpt>
      <trkpt lat="42.94621" lon="0.71708">
        <ele>1506.04</ele>
        <time>2020-05-20T12:56:58Z</time>
      </trkpt>
      <trkpt lat="42.94622" lon="0.71729">
        <ele>1508.93</ele>
        <time>2020-05-20T12:57:18Z</time>
      </trkpt>
      <trkpt lat="42.94617" lon="0.7175">
        <ele>1507.48</ele>
        <time>2020-05-20T12:57:33Z</time>
      </trkpt>
      <trkpt lat="42.9461" lon="0.71769">
        <ele>1507.97</ele>
        <time>2020-05-20T12:57:51Z</time>
      </trkpt>
      <trkpt lat="42.94606" lon="0.71787">
        <ele>1507.48</ele>
        <time>2020-05-20T12:58:03Z</time>
      </trkpt>
      <trkpt lat="42.94598" lon="0.71801">
        <ele>1507.48</ele>
        <time>2020-05-20T12:58:17Z</time>
      </trkpt>
      <trkpt lat="42.94593" lon="0.71819">
        <ele>1506.04</ele>
        <time>2020-05-20T12:58:31Z</time>
      </trkpt>
      <trkpt lat="42.94595" lon="0.71836">
        <ele>1503.64</ele>
        <time>2020-05-20T12:58:48Z</time>
      </trkpt>
      <trkpt lat="42.94589" lon="0.71849">
        <ele>1503.64</ele>
        <time>2020-05-20T12:59:02Z</time>
      </trkpt>
      <trkpt lat="42.94579" lon="0.71864">
        <ele>1505.56</ele>
        <time>2020-05-20T12:59:17Z</time>
      </trkpt>
      <trkpt lat="42.94566" lon="0.71875">
        <ele>1507.48</ele>
        <time>2020-05-20T12:59:33Z</time>
      </trkpt>
      <trkpt lat="42.94559" lon="0.71888">
        <ele>1509.89</ele>
        <time>2020-05-20T12:59:56Z</time>
      </trkpt>
      <trkpt lat="42.94545" lon="0.71904">
        <ele>1515.18</ele>
        <time>2020-05-20T13:00:28Z</time>
      </trkpt>
      <trkpt lat="42.94531" lon="0.71915">
        <ele>1517.1</ele>
        <time>2020-05-20T13:00:50Z</time>
      </trkpt>
      <trkpt lat="42.94523" lon="0.71925">
        <ele>1516.14</ele>
        <time>2020-05-20T13:01:02Z</time>
      </trkpt>
      <trkpt lat="42.9451" lon="0.71933">
        <ele>1517.1</ele>
        <time>2020-05-20T13:01:15Z</time>
      </trkpt>
      <trkpt lat="42.945" lon="0.71948">
        <ele>1513.73</ele>
        <time>2020-05-20T13:01:34Z</time>
      </trkpt>
      <trkpt lat="42.94488" lon="0.71958">
        <ele>1508.93</ele>
        <time>2020-05-20T13:01:56Z</time>
      </trkpt>
      <trkpt lat="42.94473" lon="0.71973">
        <ele>1503.16</ele>
        <time>2020-05-20T13:02:21Z</time>
      </trkpt>
      <trkpt lat="42.94467" lon="0.71994">
        <ele>1499.31</ele>
        <time>2020-05-20T13:03:38Z</time>
      </trkpt>
      <trkpt lat="42.94463" lon="0.72004">
        <ele>1494.51</ele>
        <time>2020-05-20T13:04:15Z</time>
      </trkpt>
      <trkpt lat="42.94453" lon="0.72018">
        <ele>1491.62</ele>
        <time>2020-05-20T13:04:43Z</time>
      </trkpt>
      <trkpt lat="42.94445" lon="0.72031">
        <ele>1489.22</ele>
        <time>2020-05-20T13:04:58Z</time>
      </trkpt>
      <trkpt lat="42.94445" lon="0.72044">
        <ele>1484.89</ele>
        <time>2020-05-20T13:05:22Z</time>
      </trkpt>
      <trkpt lat="42.9444" lon="0.72036">
        <ele>1481.05</ele>
        <time>2020-05-20T13:05:46Z</time>
      </trkpt>
      <trkpt lat="42.94432" lon="0.72027">
        <ele>1475.76</ele>
        <time>2020-05-20T13:06:15Z</time>
      </trkpt>
      <trkpt lat="42.94424" lon="0.72015">
        <ele>1469.51</ele>
        <time>2020-05-20T13:06:46Z</time>
      </trkpt>
      <trkpt lat="42.94414" lon="0.7201">
        <ele>1464.23</ele>
        <time>2020-05-20T13:07:13Z</time>
      </trkpt>
      <trkpt lat="42.94393" lon="0.7201">
        <ele>1458.46</ele>
        <time>2020-05-20T13:08:03Z</time>
      </trkpt>
      <trkpt lat="42.94372" lon="0.71999">
        <ele>1452.69</ele>
        <time>2020-05-20T13:08:31Z</time>
      </trkpt>
      <trkpt lat="42.94354" lon="0.71987">
        <ele>1448.36</ele>
        <time>2020-05-20T13:08:56Z</time>
      </trkpt>
      <trkpt lat="42.94334" lon="0.71981">
        <ele>1444.52</ele>
        <time>2020-05-20T13:09:22Z</time>
      </trkpt>
      <trkpt lat="42.94315" lon="0.71973">
        <ele>1441.15</ele>
        <time>2020-05-20T13:09:45Z</time>
      </trkpt>
      <trkpt lat="42.94286" lon="0.7197">
        <ele>1432.02</ele>
        <time>2020-05-20T13:10:22Z</time>
      </trkpt>
      <trkpt lat="42.94266" lon="0.71972">
        <ele>1422.89</ele>
        <time>2020-05-20T13:10:59Z</time>
      </trkpt>
      <trkpt lat="42.94247" lon="0.7197">
        <ele>1417.12</ele>
        <time>2020-05-20T13:11:31Z</time>
      </trkpt>
      <trkpt lat="42.94231" lon="0.71973">
        <ele>1412.31</ele>
        <time>2020-05-20T13:11:52Z</time>
      </trkpt>
      <trkpt lat="42.94212" lon="0.71979">
        <ele>1404.62</ele>
        <time>2020-05-20T13:12:26Z</time>
      </trkpt>
      <trkpt lat="42.94189" lon="0.71988">
        <ele>1396.93</ele>
        <time>2020-05-20T13:13:10Z</time>
      </trkpt>
      <trkpt lat="42.94173" lon="0.71994">
        <ele>1391.65</ele>
        <time>2020-05-20T13:13:41Z</time>
      </trkpt>
      <trkpt lat="42.94152" lon="0.72006">
        <ele>1386.84</ele>
        <time>2020-05-20T13:14:34Z</time>
      </trkpt>
      <trkpt lat="42.94137" lon="0.72012">
        <ele>1382.51</ele>
        <time>2020-05-20T13:14:59Z</time>
      </trkpt>
      <trkpt lat="42.9413" lon="0.72017">
        <ele>1380.11</ele>
        <time>2020-05-20T13:15:15Z</time>
      </trkpt>
      <trkpt lat="42.94123" lon="0.72021">
        <ele>1377.71</ele>
        <time>2020-05-20T13:15:29Z</time>
      </trkpt>
      <trkpt lat="42.94121" lon="0.72037">
        <ele>1374.82</ele>
        <time>2020-05-20T13:15:45Z</time>
      </trkpt>
      <trkpt lat="42.94116" lon="0.72047">
        <ele>1372.9</ele>
        <time>2020-05-20T13:16:00Z</time>
      </trkpt>
      <trkpt lat="42.94107" lon="0.72052">
        <ele>1370.02</ele>
        <time>2020-05-20T13:16:15Z</time>
      </trkpt>
      <trkpt lat="42.94102" lon="0.72061">
        <ele>1368.57</ele>
        <time>2020-05-20T13:16:29Z</time>
      </trkpt>
      <trkpt lat="42.94096" lon="0.72069">
        <ele>1367.13</ele>
        <time>2020-05-20T13:16:39Z</time>
      </trkpt>
      <trkpt lat="42.94089" lon="0.72077">
        <ele>1367.61</ele>
        <time>2020-05-20T13:16:50Z</time>
      </trkpt>
      <trkpt lat="42.94082" lon="0.72085">
        <ele>1369.05</ele>
        <time>2020-05-20T13:17:02Z</time>
      </trkpt>
      <trkpt lat="42.94075" lon="0.7209">
        <ele>1367.13</ele>
        <time>2020-05-20T13:17:15Z</time>
      </trkpt>
      <trkpt lat="42.94068" lon="0.72099">
        <ele>1364.73</ele>
        <time>2020-05-20T13:17:27Z</time>
      </trkpt>
      <trkpt lat="42.94061" lon="0.721">
        <ele>1361.36</ele>
        <time>2020-05-20T13:17:42Z</time>
      </trkpt>
      <trkpt lat="42.94052" lon="0.72103">
        <ele>1359.44</ele>
        <time>2020-05-20T13:17:57Z</time>
      </trkpt>
      <trkpt lat="42.94044" lon="0.72107">
        <ele>1355.6</ele>
        <time>2020-05-20T13:18:10Z</time>
      </trkpt>
      <trkpt lat="42.94036" lon="0.72111">
        <ele>1353.67</ele>
        <time>2020-05-20T13:18:22Z</time>
      </trkpt>
      <trkpt lat="42.94028" lon="0.72115">
        <ele>1351.27</ele>
        <time>2020-05-20T13:18:33Z</time>
      </trkpt>
      <trkpt lat="42.94019" lon="0.72117">
        <ele>1348.87</ele>
        <time>2020-05-20T13:18:44Z</time>
      </trkpt>
      <trkpt lat="42.94011" lon="0.72121">
        <ele>1347.43</ele>
        <time>2020-05-20T13:18:54Z</time>
      </trkpt>
      <trkpt lat="42.94001" lon="0.72124">
        <ele>1345.02</ele>
        <time>2020-05-20T13:19:06Z</time>
      </trkpt>
      <trkpt lat="42.9399" lon="0.72124">
        <ele>1343.1</ele>
        <time>2020-05-20T13:19:16Z</time>
      </trkpt>
      <trkpt lat="42.93979" lon="0.72121">
        <ele>1340.22</ele>
        <time>2020-05-20T13:19:31Z</time>
      </trkpt>
      <trkpt lat="42.93965" lon="0.72127">
        <ele>1337.81</ele>
        <time>2020-05-20T13:19:47Z</time>
      </trkpt>
      <trkpt lat="42.93956" lon="0.72136">
        <ele>1334.45</ele>
        <time>2020-05-20T13:20:01Z</time>
      </trkpt>
      <trkpt lat="42.93947" lon="0.72142">
        <ele>1332.52</ele>
        <time>2020-05-20T13:20:11Z</time>
      </trkpt>
      <trkpt lat="42.93937" lon="0.72148">
        <ele>1330.12</ele>
        <time>2020-05-20T13:20:23Z</time>
      </trkpt>
      <trkpt lat="42.93928" lon="0.72151">
        <ele>1327.72</ele>
        <time>2020-05-20T13:20:34Z</time>
      </trkpt>
      <trkpt lat="42.93917" lon="0.72154">
        <ele>1325.31</ele>
        <time>2020-05-20T13:20:46Z</time>
      </trkpt>
      <trkpt lat="42.93904" lon="0.72156">
        <ele>1323.87</ele>
        <time>2020-05-20T13:21:01Z</time>
      </trkpt>
      <trkpt lat="42.93892" lon="0.72165">
        <ele>1320.51</ele>
        <time>2020-05-20T13:21:18Z</time>
      </trkpt>
      <trkpt lat="42.93884" lon="0.72174">
        <ele>1319.07</ele>
        <time>2020-05-20T13:21:30Z</time>
      </trkpt>
      <trkpt lat="42.93877" lon="0.72177">
        <ele>1317.14</ele>
        <time>2020-05-20T13:21:46Z</time>
      </trkpt>
      <trkpt lat="42.93873" lon="0.72171">
        <ele>1315.22</ele>
        <time>2020-05-20T13:21:58Z</time>
      </trkpt>
      <trkpt lat="42.93858" lon="0.72157">
        <ele>1314.26</ele>
        <time>2020-05-20T13:22:14Z</time>
      </trkpt>
      <trkpt lat="42.9385" lon="0.72141">
        <ele>1310.9</ele>
        <time>2020-05-20T13:22:27Z</time>
      </trkpt>
      <trkpt lat="42.93845" lon="0.72127">
        <ele>1308.01</ele>
        <time>2020-05-20T13:22:42Z</time>
      </trkpt>
      <trkpt lat="42.93829" lon="0.72104">
        <ele>1305.61</ele>
        <time>2020-05-20T13:23:00Z</time>
      </trkpt>
      <trkpt lat="42.93806" lon="0.72086">
        <ele>1302.72</ele>
        <time>2020-05-20T13:23:20Z</time>
      </trkpt>
      <trkpt lat="42.93788" lon="0.72072">
        <ele>1299.84</ele>
        <time>2020-05-20T13:23:38Z</time>
      </trkpt>
      <trkpt lat="42.93774" lon="0.72065">
        <ele>1295.51</ele>
        <time>2020-05-20T13:23:59Z</time>
      </trkpt>
      <trkpt lat="42.93772" lon="0.72062">
        <ele>1292.63</ele>
        <time>2020-05-20T13:24:16Z</time>
      </trkpt>
      <trkpt lat="42.93782" lon="0.72058">
        <ele>1288.78</ele>
        <time>2020-05-20T13:24:36Z</time>
      </trkpt>
      <trkpt lat="42.938" lon="0.72062">
        <ele>1284.94</ele>
        <time>2020-05-20T13:25:02Z</time>
      </trkpt>
      <trkpt lat="42.93818" lon="0.72063">
        <ele>1280.13</ele>
        <time>2020-05-20T13:25:21Z</time>
      </trkpt>
      <trkpt lat="42.93836" lon="0.72066">
        <ele>1275.33</ele>
        <time>2020-05-20T13:25:44Z</time>
      </trkpt>
      <trkpt lat="42.93855" lon="0.72081">
        <ele>1269.08</ele>
        <time>2020-05-20T13:26:05Z</time>
      </trkpt>
      <trkpt lat="42.93874" lon="0.72073">
        <ele>1265.71</ele>
        <time>2020-05-20T13:26:31Z</time>
      </trkpt>
      <trkpt lat="42.93887" lon="0.72063">
        <ele>1260.91</ele>
        <time>2020-05-20T13:26:54Z</time>
      </trkpt>
      <trkpt lat="42.93889" lon="0.7205">
        <ele>1255.62</ele>
        <time>2020-05-20T13:27:14Z</time>
      </trkpt>
      <trkpt lat="42.93905" lon="0.72026">
        <ele>1249.37</ele>
        <time>2020-05-20T13:27:40Z</time>
      </trkpt>
      <trkpt lat="42.93919" lon="0.71993">
        <ele>1243.12</ele>
        <time>2020-05-20T13:28:05Z</time>
      </trkpt>
      <trkpt lat="42.93927" lon="0.71971">
        <ele>1237.35</ele>
        <time>2020-05-20T13:28:25Z</time>
      </trkpt>
      <trkpt lat="42.93928" lon="0.71948">
        <ele>1232.55</ele>
        <time>2020-05-20T13:28:40Z</time>
      </trkpt>
      <trkpt lat="42.93928" lon="0.71934">
        <ele>1228.22</ele>
        <time>2020-05-20T13:28:51Z</time>
      </trkpt>
      <trkpt lat="42.93932" lon="0.7192">
        <ele>1224.86</ele>
        <time>2020-05-20T13:29:05Z</time>
      </trkpt>
      <trkpt lat="42.93939" lon="0.7191">
        <ele>1220.53</ele>
        <time>2020-05-20T13:29:21Z</time>
      </trkpt>
      <trkpt lat="42.93943" lon="0.71894">
        <ele>1217.17</ele>
        <time>2020-05-20T13:29:34Z</time>
      </trkpt>
      <trkpt lat="42.93944" lon="0.71878">
        <ele>1214.76</ele>
        <time>2020-05-20T13:29:47Z</time>
      </trkpt>
      <trkpt lat="42.93946" lon="0.71863">
        <ele>1211.4</ele>
        <time>2020-05-20T13:29:58Z</time>
      </trkpt>
      <trkpt lat="42.93948" lon="0.71844">
        <ele>1207.07</ele>
        <time>2020-05-20T13:30:13Z</time>
      </trkpt>
      <trkpt lat="42.93949" lon="0.71828">
        <ele>1205.15</ele>
        <time>2020-05-20T13:30:24Z</time>
      </trkpt>
      <trkpt lat="42.93949" lon="0.71814">
        <ele>1203.23</ele>
        <time>2020-05-20T13:30:33Z</time>
      </trkpt>
      <trkpt lat="42.93945" lon="0.7179">
        <ele>1198.9</ele>
        <time>2020-05-20T13:31:04Z</time>
      </trkpt>
      <trkpt lat="42.93947" lon="0.71776">
        <ele>1193.61</ele>
        <time>2020-05-20T13:31:24Z</time>
      </trkpt>
      <trkpt lat="42.93947" lon="0.71764">
        <ele>1188.33</ele>
        <time>2020-05-20T13:31:42Z</time>
      </trkpt>
      <trkpt lat="42.93946" lon="0.7174">
        <ele>1182.08</ele>
        <time>2020-05-20T13:32:04Z</time>
      </trkpt>
      <trkpt lat="42.93946" lon="0.71727">
        <ele>1177.75</ele>
        <time>2020-05-20T13:32:23Z</time>
      </trkpt>
      <trkpt lat="42.93943" lon="0.71709">
        <ele>1172.95</ele>
        <time>2020-05-20T13:32:43Z</time>
      </trkpt>
      <trkpt lat="42.93941" lon="0.71679">
        <ele>1163.81</ele>
        <time>2020-05-20T13:33:15Z</time>
      </trkpt>
      <trkpt lat="42.93937" lon="0.71655">
        <ele>1156.6</ele>
        <time>2020-05-20T13:33:47Z</time>
      </trkpt>
      <trkpt lat="42.93932" lon="0.71642">
        <ele>1150.84</ele>
        <time>2020-05-20T13:34:09Z</time>
      </trkpt>
      <trkpt lat="42.93933" lon="0.71621">
        <ele>1146.51</ele>
        <time>2020-05-20T13:34:28Z</time>
      </trkpt>
      <trkpt lat="42.93932" lon="0.71601">
        <ele>1141.7</ele>
        <time>2020-05-20T13:34:48Z</time>
      </trkpt>
      <trkpt lat="42.93928" lon="0.71576">
        <ele>1135.45</ele>
        <time>2020-05-20T13:35:14Z</time>
      </trkpt>
      <trkpt lat="42.93915" lon="0.71546">
        <ele>1128.73</ele>
        <time>2020-05-20T13:35:46Z</time>
      </trkpt>
      <trkpt lat="42.9391" lon="0.71527">
        <ele>1123.44</ele>
        <time>2020-05-20T13:36:09Z</time>
      </trkpt>
      <trkpt lat="42.93902" lon="0.71507">
        <ele>1116.71</ele>
        <time>2020-05-20T13:36:36Z</time>
      </trkpt>
      <trkpt lat="42.93893" lon="0.71487">
        <ele>1112.86</ele>
        <time>2020-05-20T13:36:53Z</time>
      </trkpt>
      <trkpt lat="42.93884" lon="0.71477">
        <ele>1110.94</ele>
        <time>2020-05-20T13:37:07Z</time>
      </trkpt>
      <trkpt lat="42.93878" lon="0.71454">
        <ele>1107.58</ele>
        <time>2020-05-20T13:37:24Z</time>
      </trkpt>
      <trkpt lat="42.93874" lon="0.71442">
        <ele>1104.69</ele>
        <time>2020-05-20T13:37:37Z</time>
      </trkpt>
      <trkpt lat="42.93868" lon="0.71427">
        <ele>1101.33</ele>
        <time>2020-05-20T13:37:53Z</time>
      </trkpt>
      <trkpt lat="42.9385" lon="0.7141">
        <ele>1095.08</ele>
        <time>2020-05-20T13:38:18Z</time>
      </trkpt>
      <trkpt lat="42.93831" lon="0.71399">
        <ele>1090.27</ele>
        <time>2020-05-20T13:38:37Z</time>
      </trkpt>
      <trkpt lat="42.93817" lon="0.71389">
        <ele>1086.43</ele>
        <time>2020-05-20T13:38:52Z</time>
      </trkpt>
      <trkpt lat="42.93801" lon="0.7138">
        <ele>1082.58</ele>
        <time>2020-05-20T13:39:10Z</time>
      </trkpt>
      <trkpt lat="42.93787" lon="0.71365">
        <ele>1078.74</ele>
        <time>2020-05-20T13:39:26Z</time>
      </trkpt>
      <trkpt lat="42.93778" lon="0.71359">
        <ele>1075.37</ele>
        <time>2020-05-20T13:39:40Z</time>
      </trkpt>
      <trkpt lat="42.93779" lon="0.71334">
        <ele>1072.01</ele>
        <time>2020-05-20T13:39:59Z</time>
      </trkpt>
      <trkpt lat="42.93761" lon="0.71312">
        <ele>1067.68</ele>
        <time>2020-05-20T13:40:56Z</time>
      </trkpt>
      <trkpt lat="42.93759" lon="0.71291">
        <ele>1061.91</ele>
        <time>2020-05-20T13:41:47Z</time>
      </trkpt>
      <trkpt lat="42.93752" lon="0.71268">
        <ele>1054.22</ele>
        <time>2020-05-20T13:42:20Z</time>
      </trkpt>
      <trkpt lat="42.93748" lon="0.71249">
        <ele>1048.94</ele>
        <time>2020-05-20T13:42:42Z</time>
      </trkpt>
      <trkpt lat="42.93742" lon="0.71232">
        <ele>1045.09</ele>
        <time>2020-05-20T13:42:58Z</time>
      </trkpt>
      <trkpt lat="42.93737" lon="0.71216">
        <ele>1041.73</ele>
        <time>2020-05-20T13:43:13Z</time>
      </trkpt>
      <trkpt lat="42.9373" lon="0.71193">
        <ele>1036.44</ele>
        <time>2020-05-20T13:43:36Z</time>
      </trkpt>
      <trkpt lat="42.9372" lon="0.71175">
        <ele>1032.59</ele>
        <time>2020-05-20T13:43:53Z</time>
      </trkpt>
      <trkpt lat="42.93712" lon="0.7116">
        <ele>1028.27</ele>
        <time>2020-05-20T13:44:09Z</time>
      </trkpt>
      <trkpt lat="42.93703" lon="0.71152">
        <ele>1024.9</ele>
        <time>2020-05-20T13:44:23Z</time>
      </trkpt>
      <trkpt lat="42.9369" lon="0.71138">
        <ele>1021.06</ele>
        <time>2020-05-20T13:44:45Z</time>
      </trkpt>
      <trkpt lat="42.93682" lon="0.71125">
        <ele>1017.69</ele>
        <time>2020-05-20T13:45:03Z</time>
      </trkpt>
      <trkpt lat="42.93671" lon="0.71119">
        <ele>1013.85</ele>
        <time>2020-05-20T13:45:20Z</time>
      </trkpt>
      <trkpt lat="42.9367" lon="0.71101">
        <ele>1009.04</ele>
        <time>2020-05-20T13:45:42Z</time>
      </trkpt>
      <trkpt lat="42.93663" lon="0.71078">
        <ele>1004.23</ele>
        <time>2020-05-20T13:46:05Z</time>
      </trkpt>
      <trkpt lat="42.93666" lon="0.71058">
        <ele>1000.39</ele>
        <time>2020-05-20T13:46:26Z</time>
      </trkpt>
      <trkpt lat="42.93661" lon="0.71038">
        <ele>996.54</ele>
        <time>2020-05-20T13:46:46Z</time>
      </trkpt>
      <trkpt lat="42.93655" lon="0.7103">
        <ele>992.7</ele>
        <time>2020-05-20T13:47:05Z</time>
      </trkpt>
      <trkpt lat="42.93646" lon="0.71037">
        <ele>990.3</ele>
        <time>2020-05-20T13:47:22Z</time>
      </trkpt>
      <trkpt lat="42.93634" lon="0.71044">
        <ele>987.89</ele>
        <time>2020-05-20T13:47:36Z</time>
      </trkpt>
      <trkpt lat="42.93622" lon="0.71039">
        <ele>986.45</ele>
        <time>2020-05-20T13:47:48Z</time>
      </trkpt>
      <trkpt lat="42.93609" lon="0.71035">
        <ele>984.53</ele>
        <time>2020-05-20T13:48:03Z</time>
      </trkpt>
      <trkpt lat="42.93602" lon="0.71026">
        <ele>983.57</ele>
        <time>2020-05-20T13:48:14Z</time>
      </trkpt>
      <trkpt lat="42.93588" lon="0.71017">
        <ele>982.12</ele>
        <time>2020-05-20T13:48:27Z</time>
      </trkpt>
      <trkpt lat="42.93574" lon="0.71011">
        <ele>980.68</ele>
        <time>2020-05-20T13:48:39Z</time>
      </trkpt>
      <trkpt lat="42.93558" lon="0.71004">
        <ele>976.84</ele>
        <time>2020-05-20T13:48:58Z</time>
      </trkpt>
      <trkpt lat="42.93538" lon="0.70999">
        <ele>971.55</ele>
        <time>2020-05-20T13:49:22Z</time>
      </trkpt>
      <trkpt lat="42.93522" lon="0.70995">
        <ele>967.22</ele>
        <time>2020-05-20T13:49:45Z</time>
      </trkpt>
      <trkpt lat="42.93511" lon="0.71002">
        <ele>964.34</ele>
        <time>2020-05-20T13:50:00Z</time>
      </trkpt>
      <trkpt lat="42.93502" lon="0.71012">
        <ele>961.46</ele>
        <time>2020-05-20T13:50:13Z</time>
      </trkpt>
      <trkpt lat="42.93491" lon="0.71022">
        <ele>959.53</ele>
        <time>2020-05-20T13:50:26Z</time>
      </trkpt>
      <trkpt lat="42.93482" lon="0.7101">
        <ele>959.05</ele>
        <time>2020-05-20T13:50:37Z</time>
      </trkpt>
      <trkpt lat="42.93473" lon="0.71">
        <ele>958.09</ele>
        <time>2020-05-20T13:50:56Z</time>
      </trkpt>
      <trkpt lat="42.9347" lon="0.71">
        <ele>957.61</ele>
        <time>2020-05-20T13:51:13Z</time>
      </trkpt>
      <trkpt lat="42.93471" lon="0.70991">
        <ele>955.21</ele>
        <time>2020-05-20T13:51:30Z</time>
      </trkpt>
      <trkpt lat="42.93476" lon="0.70978">
        <ele>954.25</ele>
        <time>2020-05-20T13:51:46Z</time>
      </trkpt>
      <trkpt lat="42.93481" lon="0.70959">
        <ele>952.8</ele>
        <time>2020-05-20T13:51:59Z</time>
      </trkpt>
      <trkpt lat="42.93487" lon="0.70944">
        <ele>950.88</ele>
        <time>2020-05-20T13:52:14Z</time>
      </trkpt>
      <trkpt lat="42.93492" lon="0.70933">
        <ele>948.96</ele>
        <time>2020-05-20T13:52:24Z</time>
      </trkpt>
      <trkpt lat="42.93497" lon="0.70915">
        <ele>947.52</ele>
        <time>2020-05-20T13:52:36Z</time>
      </trkpt>
      <trkpt lat="42.93506" lon="0.70898">
        <ele>945.11</ele>
        <time>2020-05-20T13:52:51Z</time>
      </trkpt>
      <trkpt lat="42.93514" lon="0.70881">
        <ele>942.71</ele>
        <time>2020-05-20T13:53:06Z</time>
      </trkpt>
      <trkpt lat="42.93524" lon="0.70861">
        <ele>939.83</ele>
        <time>2020-05-20T13:53:23Z</time>
      </trkpt>
      <trkpt lat="42.93538" lon="0.7084">
        <ele>935.98</ele>
        <time>2020-05-20T13:53:42Z</time>
      </trkpt>
      <trkpt lat="42.93548" lon="0.70826">
        <ele>933.1</ele>
        <time>2020-05-20T13:53:56Z</time>
      </trkpt>
      <trkpt lat="42.93558" lon="0.70815">
        <ele>930.69</ele>
        <time>2020-05-20T13:54:11Z</time>
      </trkpt>
      <trkpt lat="42.93565" lon="0.708">
        <ele>929.25</ele>
        <time>2020-05-20T13:54:25Z</time>
      </trkpt>
      <trkpt lat="42.93576" lon="0.70789">
        <ele>926.85</ele>
        <time>2020-05-20T13:54:39Z</time>
      </trkpt>
      <trkpt lat="42.93585" lon="0.70773">
        <ele>924.45</ele>
        <time>2020-05-20T13:54:51Z</time>
      </trkpt>
      <trkpt lat="42.9359" lon="0.70759">
        <ele>921.56</ele>
        <time>2020-05-20T13:55:03Z</time>
      </trkpt>
      <trkpt lat="42.93598" lon="0.70747">
        <ele>919.16</ele>
        <time>2020-05-20T13:55:17Z</time>
      </trkpt>
      <trkpt lat="42.93613" lon="0.70733">
        <ele>915.79</ele>
        <time>2020-05-20T13:55:35Z</time>
      </trkpt>
      <trkpt lat="42.93625" lon="0.70727">
        <ele>912.43</ele>
        <time>2020-05-20T13:55:50Z</time>
      </trkpt>
      <trkpt lat="42.93639" lon="0.70718">
        <ele>910.03</ele>
        <time>2020-05-20T13:56:04Z</time>
      </trkpt>
      <trkpt lat="42.93654" lon="0.70711">
        <ele>907.14</ele>
        <time>2020-05-20T13:56:17Z</time>
      </trkpt>
      <trkpt lat="42.93665" lon="0.7069">
        <ele>906.18</ele>
        <time>2020-05-20T13:56:48Z</time>
      </trkpt>
      <trkpt lat="42.93677" lon="0.70686">
        <ele>903.78</ele>
        <time>2020-05-20T13:57:15Z</time>
      </trkpt>
      <trkpt lat="42.93671" lon="0.70676">
        <ele>901.37</ele>
        <time>2020-05-20T13:57:31Z</time>
      </trkpt>
      <trkpt lat="42.93664" lon="0.70671">
        <ele>900.41</ele>
        <time>2020-05-20T13:57:45Z</time>
      </trkpt>
      <trkpt lat="42.93668" lon="0.70671">
        <ele>898.01</ele>
        <time>2020-05-20T13:58:02Z</time>
      </trkpt>
      <trkpt lat="42.93677" lon="0.70659">
        <ele>896.57</ele>
        <time>2020-05-20T13:58:20Z</time>
      </trkpt>
      <trkpt lat="42.93686" lon="0.70651">
        <ele>894.64</ele>
        <time>2020-05-20T13:58:36Z</time>
      </trkpt>
      <trkpt lat="42.93701" lon="0.70647">
        <ele>892.24</ele>
        <time>2020-05-20T13:58:54Z</time>
      </trkpt>
      <trkpt lat="42.93715" lon="0.70644">
        <ele>888.88</ele>
        <time>2020-05-20T13:59:09Z</time>
      </trkpt>
      <trkpt lat="42.93727" lon="0.70645">
        <ele>886.95</ele>
        <time>2020-05-20T13:59:23Z</time>
      </trkpt>
      <trkpt lat="42.93737" lon="0.70649">
        <ele>883.11</ele>
        <time>2020-05-20T13:59:40Z</time>
      </trkpt>
      <trkpt lat="42.93748" lon="0.70653">
        <ele>880.22</ele>
        <time>2020-05-20T13:59:55Z</time>
      </trkpt>
      <trkpt lat="42.93764" lon="0.70659">
        <ele>876.38</ele>
        <time>2020-05-20T14:00:13Z</time>
      </trkpt>
      <trkpt lat="42.93779" lon="0.70664">
        <ele>873.98</ele>
        <time>2020-05-20T14:00:32Z</time>
      </trkpt>
      <trkpt lat="42.93789" lon="0.70668">
        <ele>870.61</ele>
        <time>2020-05-20T14:00:50Z</time>
      </trkpt>
      <trkpt lat="42.93798" lon="0.7067">
        <ele>866.77</ele>
        <time>2020-05-20T14:01:12Z</time>
      </trkpt>
      <trkpt lat="42.93812" lon="0.70679">
        <ele>865.8</ele>
        <time>2020-05-20T14:01:26Z</time>
      </trkpt>
      <trkpt lat="42.93824" lon="0.70688">
        <ele>864.84</ele>
        <time>2020-05-20T14:01:45Z</time>
      </trkpt>
      <trkpt lat="42.93842" lon="0.70696">
        <ele>863.88</ele>
        <time>2020-05-20T14:01:58Z</time>
      </trkpt>
      <trkpt lat="42.9385" lon="0.70683">
        <ele>861</ele>
        <time>2020-05-20T14:02:14Z</time>
      </trkpt>
      <trkpt lat="42.93836" lon="0.70669">
        <ele>856.67</ele>
        <time>2020-05-20T14:02:37Z</time>
      </trkpt>
      <trkpt lat="42.93828" lon="0.70653">
        <ele>852.83</ele>
        <time>2020-05-20T14:03:01Z</time>
      </trkpt>
      <trkpt lat="42.93822" lon="0.7064">
        <ele>849.94</ele>
        <time>2020-05-20T14:03:18Z</time>
      </trkpt>
      <trkpt lat="42.93821" lon="0.70625">
        <ele>846.1</ele>
        <time>2020-05-20T14:03:36Z</time>
      </trkpt>
      <trkpt lat="42.93813" lon="0.70607">
        <ele>843.69</ele>
        <time>2020-05-20T14:03:56Z</time>
      </trkpt>
      <trkpt lat="42.93807" lon="0.70591">
        <ele>840.81</ele>
        <time>2020-05-20T14:04:18Z</time>
      </trkpt>
      <trkpt lat="42.93805" lon="0.70567">
        <ele>837.45</ele>
        <time>2020-05-20T14:04:46Z</time>
      </trkpt>
      <trkpt lat="42.93801" lon="0.70551">
        <ele>833.12</ele>
        <time>2020-05-20T14:05:07Z</time>
      </trkpt>
      <trkpt lat="42.93804" lon="0.70532">
        <ele>827.35</ele>
        <time>2020-05-20T14:05:35Z</time>
      </trkpt>
      <trkpt lat="42.93802" lon="0.70514">
        <ele>823.99</ele>
        <time>2020-05-20T14:06:20Z</time>
      </trkpt>
      <trkpt lat="42.93796" lon="0.70494">
        <ele>821.58</ele>
        <time>2020-05-20T14:06:36Z</time>
      </trkpt>
      <trkpt lat="42.93785" lon="0.7048">
        <ele>818.7</ele>
        <time>2020-05-20T14:06:59Z</time>
      </trkpt>
      <trkpt lat="42.93772" lon="0.70476">
        <ele>817.26</ele>
        <time>2020-05-20T14:07:17Z</time>
      </trkpt>
      <trkpt lat="42.93764" lon="0.70461">
        <ele>812.45</ele>
        <time>2020-05-20T14:07:42Z</time>
      </trkpt>
      <trkpt lat="42.93754" lon="0.70447">
        <ele>808.61</ele>
        <time>2020-05-20T14:08:03Z</time>
      </trkpt>
      <trkpt lat="42.93743" lon="0.70433">
        <ele>807.16</ele>
        <time>2020-05-20T14:08:21Z</time>
      </trkpt>
      <trkpt lat="42.93734" lon="0.70425">
        <ele>804.76</ele>
        <time>2020-05-20T14:08:44Z</time>
      </trkpt>
      <trkpt lat="42.93728" lon="0.70413">
        <ele>802.36</ele>
        <time>2020-05-20T14:08:58Z</time>
      </trkpt>
      <trkpt lat="42.9372" lon="0.70401">
        <ele>800.92</ele>
        <time>2020-05-20T14:09:12Z</time>
      </trkpt>
      <trkpt lat="42.93712" lon="0.70388">
        <ele>798.03</ele>
        <time>2020-05-20T14:09:26Z</time>
      </trkpt>
      <trkpt lat="42.93707" lon="0.70374">
        <ele>797.55</ele>
        <time>2020-05-20T14:09:41Z</time>
      </trkpt>
      <trkpt lat="42.93691" lon="0.70365">
        <ele>795.15</ele>
        <time>2020-05-20T14:10:00Z</time>
      </trkpt>
      <trkpt lat="42.93675" lon="0.70361">
        <ele>789.86</ele>
        <time>2020-05-20T14:10:26Z</time>
      </trkpt>
      <trkpt lat="42.93669" lon="0.70348">
        <ele>787.46</ele>
        <time>2020-05-20T14:10:42Z</time>
      </trkpt>
      <trkpt lat="42.93662" lon="0.70337">
        <ele>786.02</ele>
        <time>2020-05-20T14:10:55Z</time>
      </trkpt>
      <trkpt lat="42.93652" lon="0.70322">
        <ele>784.57</ele>
        <time>2020-05-20T14:11:09Z</time>
      </trkpt>
      <trkpt lat="42.93643" lon="0.703">
        <ele>782.17</ele>
        <time>2020-05-20T14:11:31Z</time>
      </trkpt>
      <trkpt lat="42.93636" lon="0.70283">
        <ele>780.25</ele>
        <time>2020-05-20T14:11:52Z</time>
      </trkpt>
      <trkpt lat="42.93632" lon="0.70269">
        <ele>778.81</ele>
        <time>2020-05-20T14:12:05Z</time>
      </trkpt>
      <trkpt lat="42.93628" lon="0.70251">
        <ele>778.32</ele>
        <time>2020-05-20T14:12:17Z</time>
      </trkpt>
      <trkpt lat="42.93622" lon="0.70236">
        <ele>778.32</ele>
        <time>2020-05-20T14:12:28Z</time>
      </trkpt>
      <trkpt lat="42.9362" lon="0.70217">
        <ele>778.81</ele>
        <time>2020-05-20T14:12:39Z</time>
      </trkpt>
      <trkpt lat="42.93617" lon="0.70205">
        <ele>779.77</ele>
        <time>2020-05-20T14:12:51Z</time>
      </trkpt>
      <trkpt lat="42.93615" lon="0.70189">
        <ele>781.21</ele>
        <time>2020-05-20T14:13:05Z</time>
      </trkpt>
      <trkpt lat="42.93613" lon="0.70171">
        <ele>780.73</ele>
        <time>2020-05-20T14:13:20Z</time>
      </trkpt>
      <trkpt lat="42.93608" lon="0.7016">
        <ele>781.21</ele>
        <time>2020-05-20T14:13:32Z</time>
      </trkpt>
      <trkpt lat="42.93603" lon="0.7014">
        <ele>779.77</ele>
        <time>2020-05-20T14:13:46Z</time>
      </trkpt>
      <trkpt lat="42.93597" lon="0.70122">
        <ele>779.77</ele>
        <time>2020-05-20T14:13:57Z</time>
      </trkpt>
      <trkpt lat="42.93585" lon="0.7011">
        <ele>779.29</ele>
        <time>2020-05-20T14:14:13Z</time>
      </trkpt>
      <trkpt lat="42.93572" lon="0.70107">
        <ele>780.25</ele>
        <time>2020-05-20T14:14:28Z</time>
      </trkpt>
      <trkpt lat="42.93563" lon="0.70099">
        <ele>781.21</ele>
        <time>2020-05-20T14:14:40Z</time>
      </trkpt>
      <trkpt lat="42.93557" lon="0.70083">
        <ele>781.69</ele>
        <time>2020-05-20T14:14:52Z</time>
      </trkpt>
      <trkpt lat="42.9354" lon="0.70079">
        <ele>782.17</ele>
        <time>2020-05-20T14:15:08Z</time>
      </trkpt>
      <trkpt lat="42.93525" lon="0.70079">
        <ele>782.65</ele>
        <time>2020-05-20T14:15:21Z</time>
      </trkpt>
      <trkpt lat="42.93515" lon="0.7007">
        <ele>784.09</ele>
        <time>2020-05-20T14:15:34Z</time>
      </trkpt>
      <trkpt lat="42.93499" lon="0.70064">
        <ele>788.42</ele>
        <time>2020-05-20T14:16:01Z</time>
      </trkpt>
      <trkpt lat="42.93485" lon="0.70062">
        <ele>791.78</ele>
        <time>2020-05-20T14:16:23Z</time>
      </trkpt>
      <trkpt lat="42.93473" lon="0.70055">
        <ele>793.71</ele>
        <time>2020-05-20T14:16:37Z</time>
      </trkpt>
      <trkpt lat="42.93465" lon="0.70042">
        <ele>793.71</ele>
        <time>2020-05-20T14:16:49Z</time>
      </trkpt>
      <trkpt lat="42.93456" lon="0.7003">
        <ele>793.71</ele>
        <time>2020-05-20T14:16:59Z</time>
      </trkpt>
      <trkpt lat="42.93452" lon="0.70016">
        <ele>794.19</ele>
        <time>2020-05-20T14:17:09Z</time>
      </trkpt>
      <trkpt lat="42.93451" lon="0.70003">
        <ele>792.26</ele>
        <time>2020-05-20T14:17:20Z</time>
      </trkpt>
      <trkpt lat="42.9345" lon="0.69989">
        <ele>789.86</ele>
        <time>2020-05-20T14:17:53Z</time>
      </trkpt>
      <trkpt lat="42.93449" lon="0.69982">
        <ele>787.94</ele>
        <time>2020-05-20T14:20:02Z</time>
      </trkpt>
      <trkpt lat="42.9345" lon="0.69985">
        <ele>786.98</ele>
        <time>2020-05-20T14:20:40Z</time>
      </trkpt>
      <trkpt lat="42.93453" lon="0.69971">
        <ele>784.57</ele>
        <time>2020-05-20T14:20:58Z</time>
      </trkpt>
      <trkpt lat="42.93448" lon="0.69951">
        <ele>783.13</ele>
        <time>2020-05-20T14:21:15Z</time>
      </trkpt>
      <trkpt lat="42.93449" lon="0.69936">
        <ele>782.17</ele>
        <time>2020-05-20T14:21:27Z</time>
      </trkpt>
      <trkpt lat="42.93448" lon="0.69922">
        <ele>781.69</ele>
        <time>2020-05-20T14:21:39Z</time>
      </trkpt>
      <trkpt lat="42.93445" lon="0.69904">
        <ele>780.73</ele>
        <time>2020-05-20T14:21:51Z</time>
      </trkpt>
      <trkpt lat="42.93442" lon="0.69887">
        <ele>779.29</ele>
        <time>2020-05-20T14:22:01Z</time>
      </trkpt>
      <trkpt lat="42.9344" lon="0.69872">
        <ele>778.32</ele>
        <time>2020-05-20T14:22:12Z</time>
      </trkpt>
      <trkpt lat="42.93436" lon="0.69855">
        <ele>777.36</ele>
        <time>2020-05-20T14:22:26Z</time>
      </trkpt>
      <trkpt lat="42.93429" lon="0.69842">
        <ele>774.96</ele>
        <time>2020-05-20T14:22:37Z</time>
      </trkpt>
      <trkpt lat="42.93422" lon="0.69831">
        <ele>773.04</ele>
        <time>2020-05-20T14:22:48Z</time>
      </trkpt>
      <trkpt lat="42.93414" lon="0.69821">
        <ele>771.11</ele>
        <time>2020-05-20T14:23:01Z</time>
      </trkpt>
      <trkpt lat="42.93402" lon="0.69815">
        <ele>769.67</ele>
        <time>2020-05-20T14:23:12Z</time>
      </trkpt>
      <trkpt lat="42.93396" lon="0.698">
        <ele>768.23</ele>
        <time>2020-05-20T14:23:22Z</time>
      </trkpt>
      <trkpt lat="42.93387" lon="0.69789">
        <ele>766.79</ele>
        <time>2020-05-20T14:23:32Z</time>
      </trkpt>
      <trkpt lat="42.93381" lon="0.69778">
        <ele>766.31</ele>
        <time>2020-05-20T14:23:42Z</time>
      </trkpt>
      <trkpt lat="42.93375" lon="0.69767">
        <ele>764.87</ele>
        <time>2020-05-20T14:23:52Z</time>
      </trkpt>
      <trkpt lat="42.93366" lon="0.69758">
        <ele>763.9</ele>
        <time>2020-05-20T14:24:02Z</time>
      </trkpt>
      <trkpt lat="42.93358" lon="0.69749">
        <ele>762.46</ele>
        <time>2020-05-20T14:24:11Z</time>
      </trkpt>
      <trkpt lat="42.93351" lon="0.69742">
        <ele>761.98</ele>
        <time>2020-05-20T14:24:21Z</time>
      </trkpt>
      <trkpt lat="42.9334" lon="0.69736">
        <ele>761.5</ele>
        <time>2020-05-20T14:24:31Z</time>
      </trkpt>
      <trkpt lat="42.93331" lon="0.69727">
        <ele>761.5</ele>
        <time>2020-05-20T14:24:40Z</time>
      </trkpt>
      <trkpt lat="42.93323" lon="0.69717">
        <ele>761.02</ele>
        <time>2020-05-20T14:24:49Z</time>
      </trkpt>
      <trkpt lat="42.93315" lon="0.69708">
        <ele>761.02</ele>
        <time>2020-05-20T14:24:58Z</time>
      </trkpt>
      <trkpt lat="42.93307" lon="0.69701">
        <ele>760.06</ele>
        <time>2020-05-20T14:25:08Z</time>
      </trkpt>
      <trkpt lat="42.93299" lon="0.69691">
        <ele>759.58</ele>
        <time>2020-05-20T14:25:18Z</time>
      </trkpt>
      <trkpt lat="42.93297" lon="0.69678">
        <ele>758.14</ele>
        <time>2020-05-20T14:25:27Z</time>
      </trkpt>
      <trkpt lat="42.93297" lon="0.69664">
        <ele>757.18</ele>
        <time>2020-05-20T14:25:38Z</time>
      </trkpt>
      <trkpt lat="42.93295" lon="0.69649">
        <ele>756.21</ele>
        <time>2020-05-20T14:25:48Z</time>
      </trkpt>
      <trkpt lat="42.93287" lon="0.69641">
        <ele>754.29</ele>
        <time>2020-05-20T14:25:59Z</time>
      </trkpt>
      <trkpt lat="42.93283" lon="0.69627">
        <ele>751.89</ele>
        <time>2020-05-20T14:26:10Z</time>
      </trkpt>
      <trkpt lat="42.9328" lon="0.69614">
        <ele>750.45</ele>
        <time>2020-05-20T14:26:19Z</time>
      </trkpt>
      <trkpt lat="42.93279" lon="0.69601">
        <ele>749.49</ele>
        <time>2020-05-20T14:26:28Z</time>
      </trkpt>
      <trkpt lat="42.9328" lon="0.69587">
        <ele>748.52</ele>
        <time>2020-05-20T14:26:38Z</time>
      </trkpt>
      <trkpt lat="42.93279" lon="0.69574">
        <ele>747.56</ele>
        <time>2020-05-20T14:26:47Z</time>
      </trkpt>
      <trkpt lat="42.93279" lon="0.6956">
        <ele>746.6</ele>
        <time>2020-05-20T14:26:55Z</time>
      </trkpt>
      <trkpt lat="42.93279" lon="0.69546">
        <ele>745.16</ele>
        <time>2020-05-20T14:27:04Z</time>
      </trkpt>
      <trkpt lat="42.93279" lon="0.69532">
        <ele>744.2</ele>
        <time>2020-05-20T14:27:13Z</time>
      </trkpt>
      <trkpt lat="42.93279" lon="0.69518">
        <ele>742.76</ele>
        <time>2020-05-20T14:27:22Z</time>
      </trkpt>
      <trkpt lat="42.93277" lon="0.69507">
        <ele>741.79</ele>
        <time>2020-05-20T14:27:32Z</time>
      </trkpt>
      <trkpt lat="42.93271" lon="0.69496">
        <ele>739.87</ele>
        <time>2020-05-20T14:27:43Z</time>
      </trkpt>
      <trkpt lat="42.93262" lon="0.69486">
        <ele>738.43</ele>
        <time>2020-05-20T14:27:56Z</time>
      </trkpt>
      <trkpt lat="42.9325" lon="0.69485">
        <ele>737.95</ele>
        <time>2020-05-20T14:28:13Z</time>
      </trkpt>
      <trkpt lat="42.93248" lon="0.69486">
        <ele>736.99</ele>
        <time>2020-05-20T14:28:43Z</time>
      </trkpt>
      <trkpt lat="42.93249" lon="0.69488">
        <ele>732.18</ele>
        <time>2020-05-20T14:29:03Z</time>
      </trkpt>
    </trkseg>
  </trk>
</gpx>